<- Previous Day | Today | Next Day ->

All Data for 02 August 2020

 

Time A - D Temp A - D Dew Point A - D Humidity A - D Pressure A - D Wind A - D Wind Dir Gust A - D Rain Rate A - D Rain Total
12:48 18.7 11.5 63 1018.1 13.6 W 13.6 0.0 0.4
12:49 18.7 11.3 62 1018.3 9.8 NW 13.6 0.0 0.4
12:50 18.7 11.0 61 1018.0 9.8 N 13.6 0.0 0.4
12:52 18.7 11.0 61 1018.1 9.8 NW 13.6 0.0 0.4
12:53 18.7 11.0 61 1018.0 9.2 S 13.6 0.0 0.4
12:54 18.6 10.7 60 1018.2 9.2 NW 13.6 0.0 0.4
12:55 18.4 10.8 61 1018.2 8.3 W 13.6 0.0 0.4
12:56 18.4 10.8 61 1018.2 9.8 W 13.6 0.0 0.4
12:57 18.4 10.8 61 1018.2 8.3 W 13.6 0.0 0.4
12:58 18.4 10.8 61 1018.3 6.9 SW 13.6 0.0 0.4
13:32 18.3 10.7 61 1018.2 13.6 NW 13.6 0.0 0.4
13:33 18.3 10.7 61 1018.2 8.3 W 13.6 0.0 0.4
13:34 18.3 10.7 61 1018.3 11.4 N 13.6 0.0 0.4
13:35 18.2 10.3 60 1018.4 9.2 W 13.6 0.0 0.4
13:36 18.1 10.2 60 1018.3 8.3 W 13.6 0.0 0.4
13:37 18.0 10.1 60 1017.9 9.2 W 13.6 0.0 0.4
13:38 18.0 10.1 60 1018.1 7.6 W 13.6 0.0 0.4
13:39 18.0 10.4 61 1018.1 8.3 SW 13.6 0.0 0.4
13:40 18.0 10.6 62 1018.3 9.8 W 13.6 0.0 0.4
13:41 18.1 10.7 62 1018.0 9.8 W 13.6 0.0 0.4
13:51 18.6 10.9 61 1018.2 11.4 NW 13.6 0.0 0.4
13:52 18.4 10.5 60 1018.2 11.4 NW 13.6 0.0 0.4
13:53 18.3 10.4 60 1018.2 11.4 W 13.6 0.0 0.4
13:54 18.2 10.3 60 1018.1 10.7 E 13.6 0.0 0.4
13:55 18.1 10.2 60 1018.0 11.4 ESE 13.6 0.0 0.4
13:56 17.9 9.8 59 1018.2 9.2 W 13.6 0.0 0.4
13:57 18.0 10.1 60 1018.0 9.8 NW 13.6 0.0 0.4
13:59 18.1 10.5 61 1018.1 10.7 SW 13.6 0.0 0.4
14:00 18.1 10.5 61 1018.2 10.7 SW 13.6 0.0 0.4
14:19 18.7 9.2 54 1018.0 13.6 W 13.6 0.0 0.4
14:20 18.6 9.1 54 1018.1 10.7 W 13.6 0.0 0.4
14:21 18.4 8.9 54 1017.9 10.7 W 13.6 0.0 0.4
14:22 18.3 9.1 55 1018.0 5.4 W 13.6 0.0 0.4
14:23 18.2 9.3 56 1017.9 7.6 W 13.6 0.0 0.4
14:24 18.1 9.5 57 1017.9 7.6 E 13.6 0.0 0.4
14:25 18.1 9.7 58 1017.9 5.4 N 13.6 0.0 0.4
14:26 18.1 10.0 59 1018.0 7.6 NW 13.6 0.0 0.4
14:27 18.1 10.0 59 1018.1 9.2 W 13.6 0.0 0.4
14:29 18.1 10.2 60 1018.1 8.3 N 13.6 0.0 0.4
16:03 19.3 9.5 53 1018.2 8.3 SW 13.6 0.0 0.4
16:04 19.3 9.5 53 1018.2 9.8 W 13.6 0.0 0.4
16:05 19.3 9.8 54 1018.0 9.2 SW 13.6 0.0 0.4
16:06 19.3 10.0 55 1018.0 9.2 SW 13.6 0.0 0.4
16:07 19.3 10.3 56 1017.8 8.3 NE 13.6 0.0 0.4
16:08 19.3 10.0 55 1017.9 9.2 NE 13.6 0.0 0.4
16:09 19.3 10.0 55 1018.1 8.3 E 13.6 0.0 0.4
16:10 19.3 9.8 54 1018.2 13.0 W 13.6 0.0 0.4
16:12 19.0 9.8 55 1017.9 8.3 NW 13.6 0.0 0.4
16:50 17.5 7.5 52 1017.9 13.6 NW 13.6 0.0 0.4
16:51 17.4 8.3 55 1017.9 6.9 E 13.6 0.0 0.4
16:52 17.5 7.5 52 1018.0 9.2 NW 13.6 0.0 0.4
16:53 17.5 7.8 53 1018.0 5.4 SW 13.6 0.0 0.4
16:54 17.4 8.5 56 1018.0 6.9 N 13.6 0.0 0.4
16:55 17.4 8.5 56 1017.9 6.0 W 13.6 0.0 0.4
16:56 17.4 8.8 57 1018.0 6.0 W 13.6 0.0 0.4
16:58 17.4 8.8 57 1017.9 6.0 NE 13.6 0.0 0.4
16:59 17.4 8.3 55 1017.9 9.8 NNW 13.6 0.0 0.4
08:57 16.1 13.4 84 1018.1 13.0 SW 13.0 0.0 0.0
08:58 16.1 13.4 84 1018.0 13.0 S 13.0 0.0 0.0
08:59 16.2 13.5 84 1018.1 9.8 W 13.0 0.0 0.0
09:00 16.2 13.5 84 1018.1 9.8 W 13.0 0.0 0.0
09:01 16.2 13.5 84 1018.2 9.8 W 13.0 0.0 0.0
09:02 16.3 13.4 83 1018.0 11.4 N 13.0 0.0 0.0
09:03 16.3 13.4 83 1018.2 8.3 W 13.0 0.0 0.0
09:04 16.3 13.2 82 1018.0 9.2 W 13.0 0.0 0.0
09:05 16.3 13.2 82 1018.2 9.8 W 13.0 0.0 0.0
09:07 16.3 13.2 82 1018.2 9.8 S 13.0 0.0 0.0
09:30 16.5 12.9 79 1018.1 13.0 SW 13.0 0.0 0.0
09:31 16.5 12.9 79 1018.2 7.6 SW 13.0 0.0 0.0
09:32 16.4 12.8 79 1018.2 10.7 W 13.0 0.0 0.0
09:33 16.4 12.8 79 1018.1 11.4 SW 13.0 0.0 0.0
09:35 16.3 12.5 78 1018.1 7.6 N 13.0 0.0 0.0
09:36 16.3 12.5 78 1018.2 6.9 W 13.0 0.0 0.0
09:37 16.3 12.5 78 1018.1 7.6 SW 13.0 0.0 0.0
09:38 16.3 12.5 78 1018.3 9.8 WNW 13.0 0.0 0.0
09:39 16.2 12.4 78 1018.2 9.2 W 13.0 0.0 0.0
09:40 16.2 12.4 78 1018.2 10.7 W 13.0 0.0 0.0
14:35 18.5 10.6 60 1018.1 13.0 N 13.0 0.0 0.4
14:36 18.6 10.2 58 1018.1 10.7 NW 13.0 0.0 0.4
14:37 18.8 10.1 57 1018.1 7.6 SW 13.0 0.0 0.4
14:38 19.0 10.6 58 1018.2 8.3 S 13.0 0.0 0.4
14:39 19.0 10.3 57 1018.0 9.8 W 13.0 0.0 0.4
14:40 19.1 9.9 55 1018.1 9.2 W 13.0 0.0 0.4
14:41 19.1 9.9 55 1018.0 7.6 N 13.0 0.0 0.4
14:42 19.1 9.9 55 1018.2 11.4 NW 13.0 0.0 0.4
14:44 19.1 10.1 56 1018.2 6.0 W 13.0 0.0 0.4
14:45 19.1 10.1 56 1018.4 9.8 W 13.0 0.0 0.4
16:13 19.0 9.8 55 1017.9 8.3 NW 13.0 0.0 0.4
16:14 19.0 9.5 54 1018.2 9.2 W 13.0 0.0 0.4
16:15 18.8 9.0 53 1018.2 9.2 W 13.0 0.0 0.4
16:16 18.7 9.2 54 1018.2 9.8 N 13.0 0.0 0.4
16:17 18.6 9.1 54 1018.1 9.2 NE 13.0 0.0 0.4
16:18 18.6 9.1 54 1018.2 9.2 NE 13.0 0.0 0.4
16:19 18.6 9.7 56 1018.1 7.6 NW 13.0 0.0 0.4
16:20 18.6 9.7 56 1018.0 7.6 N 13.0 0.0 0.4
16:21 18.7 10.3 58 1018.1 7.6 W 13.0 0.0 0.4
18:05 17.8 9.2 57 1017.7 13.0 W 13.0 0.0 0.4
18:07 17.7 9.1 57 1017.7 8.3 NW 13.0 0.0 0.4
18:08 17.7 9.1 57 1018.0 8.3 NW 13.0 0.0 0.4
18:09 17.7 9.1 57 1018.0 8.3 NW 13.0 0.0 0.4
18:10 17.7 9.1 57 1017.8 9.2 NW 13.0 0.0 0.4
18:11 17.7 9.1 57 1017.7 8.3 W 13.0 0.0 0.4
18:12 17.7 9.1 57 1017.8 4.5 NNW 13.0 0.0 0.4
18:13 17.7 9.3 58 1017.7 6.0 NW 13.0 0.0 0.4
18:14 17.7 9.3 58 1018.0 6.0 NW 13.0 0.0 0.4
18:15 17.6 9.2 58 1017.8 10.7 W 13.0 0.0 0.4
08:34 15.4 13.4 88 1018.0 12.1 W 12.1 0.0 0.0
08:35 15.5 13.5 88 1018.0 12.1 SW 12.1 0.0 0.0
08:37 15.5 13.5 88 1018.1 12.1 SW 12.1 0.0 0.0
08:38 15.6 13.6 88 1018.0 11.4 SW 12.1 0.0 0.0
08:39 15.6 13.5 87 1018.0 12.1 SW 12.1 0.0 0.0
08:40 15.6 13.5 87 1018.1 11.4 N 12.1 0.0 0.0
08:41 15.6 13.5 87 1018.1 9.8 W 12.1 0.0 0.0
08:42 15.6 13.5 87 1018.2 6.9 W 12.1 0.0 0.0
08:43 15.6 13.3 86 1018.2 11.4 W 12.1 0.0 0.0
08:44 15.6 13.3 86 1018.3 9.8 SW 12.1 0.0 0.0
08:45 15.6 13.3 86 1018.1 9.8 SW 12.1 0.0 0.0
08:46 15.6 13.3 86 1017.9 9.8 W 12.1 0.0 0.0
08:47 15.6 13.1 85 1018.0 10.7 SW 12.1 0.0 0.0
08:48 15.6 13.1 85 1018.1 7.6 W 12.1 0.0 0.0
08:49 15.7 13.2 85 1018.0 6.9 W 12.1 0.0 0.0
08:53 15.8 13.3 85 1018.3 12.1 SW 12.1 0.0 0.0
08:54 15.8 13.3 85 1018.2 12.1 SW 12.1 0.0 0.0
08:55 15.9 13.4 85 1018.4 10.7 SW 12.1 0.0 0.0
08:56 16.0 13.3 84 1018.0 9.8 SW 12.1 0.0 0.0
09:11 16.2 12.9 81 1018.1 11.4 W 12.1 0.0 0.0
09:12 16.2 12.8 80 1017.9 9.2 SW 12.1 0.0 0.0
09:13 16.2 12.8 80 1018.2 6.9 W 12.1 0.0 0.0
09:14 16.2 12.8 80 1018.2 7.6 WSW 12.1 0.0 0.0
09:15 16.2 12.8 80 1018.1 9.8 W 12.1 0.0 0.0
09:16 16.2 12.8 80 1018.2 9.8 SW 12.1 0.0 0.0
09:17 16.2 12.8 80 1018.1 9.2 W 12.1 0.0 0.0
09:18 16.2 12.8 80 1018.0 9.2 SW 12.1 0.0 0.0
09:19 16.2 12.8 80 1018.2 8.3 W 12.1 0.0 0.0
09:23 16.5 13.0 80 1018.3 12.1 SW 12.1 0.0 0.0
09:24 16.5 13.0 80 1018.2 11.4 SW 12.1 0.0 0.0
09:25 16.5 13.0 80 1018.1 11.4 SW 12.1 0.0 0.0
09:26 16.6 13.1 80 1018.2 10.7 S 12.1 0.0 0.0
09:27 16.6 13.1 80 1018.1 9.8 W 12.1 0.0 0.0
09:28 16.6 13.1 80 1018.0 9.8 SW 12.1 0.0 0.0
09:29 16.5 13.0 80 1018.2 10.7 SW 12.1 0.0 0.0
10:12 16.8 12.8 77 1018.0 9.8 SW 12.1 0.0 0.0
10:13 16.8 12.8 77 1018.0 9.2 SW 12.1 0.0 0.0
10:14 16.9 12.9 77 1017.8 9.2 SW 12.1 0.0 0.0
10:15 17.0 12.9 77 1018.2 11.4 SW 12.1 0.0 0.0
10:17 17.2 12.9 76 1018.2 8.3 NW 12.1 0.0 0.0
10:18 17.2 12.9 76 1018.2 8.3 NW 12.1 0.0 0.0
10:19 17.3 12.8 75 1018.1 7.6 N 12.1 0.0 0.0
10:20 17.4 12.9 75 1018.0 6.9 NW 12.1 0.0 0.0
10:21 17.4 12.9 75 1018.1 8.3 W 12.1 0.0 0.0
10:22 17.5 12.4 72 1018.2 8.3 NW 12.1 0.0 0.0
11:47 16.8 13.0 78 1018.2 12.1 NW 12.1 0.0 0.4
11:48 16.8 13.0 78 1018.1 9.2 W 12.1 0.0 0.4
11:49 16.9 13.0 78 1018.2 8.3 W 12.1 0.0 0.4
11:50 17.0 13.1 78 1018.2 8.3 SW 12.1 0.0 0.4
11:51 17.0 13.1 78 1018.2 9.8 W 12.1 0.0 0.4
11:52 17.0 12.7 76 1018.4 9.8 SW 12.1 0.0 0.4
11:54 17.1 12.8 76 1018.1 9.8 W 12.1 0.0 0.4
11:55 17.1 12.8 76 1018.2 9.2 W 12.1 0.0 0.4
11:56 17.2 12.9 76 1018.5 8.3 NW 12.1 0.0 0.4
11:57 17.2 12.7 75 1018.2 8.3 SW 12.1 0.0 0.4
12:25 17.4 12.1 71 1018.4 12.1 NW 12.1 0.0 0.4
12:26 17.5 11.5 68 1018.2 12.1 N 12.1 0.0 0.4
12:27 17.5 11.1 66 1018.5 9.2 W 12.1 0.0 0.4
12:28 17.5 11.3 67 1018.3 6.9 NW 12.1 0.0 0.4
12:29 17.6 11.9 69 1018.3 7.6 W 12.1 0.0 0.4
12:30 17.9 12.1 69 1018.4 12.1 W 12.1 0.0 0.4
12:31 18.0 12.2 69 1018.5 11.4 NW 12.1 0.0 0.4
12:32 18.2 12.0 67 1018.3 8.3 NW 12.1 0.0 0.4
12:33 18.3 12.1 67 1018.1 9.2 NW 12.1 0.0 0.4
12:34 18.3 11.6 65 1018.1 7.6 W 12.1 0.0 0.4
12:35 18.4 11.5 64 1018.5 6.9 WNW 12.1 0.0 0.4
12:37 18.5 11.6 64 1018.0 8.3 N 12.1 0.0 0.4
12:38 18.5 11.3 63 1018.2 6.0 W 12.1 0.0 0.4
12:39 18.4 11.2 63 1018.3 7.6 E 12.1 0.0 0.4
12:40 18.4 11.5 64 1018.3 6.0 W 12.1 0.0 0.4
13:47 18.7 11.3 62 1018.1 11.4 W 12.1 0.0 0.4
13:48 18.7 11.0 61 1018.1 11.4 NW 12.1 0.0 0.4
13:49 18.7 11.0 61 1018.0 11.4 N 12.1 0.0 0.4
13:50 18.7 11.0 61 1018.1 12.1 W 12.1 0.0 0.4
14:06 18.4 10.8 61 1018.0 12.1 SW 12.1 0.0 0.4
14:07 18.6 10.7 60 1018.0 9.8 WSW 12.1 0.0 0.4
14:08 18.9 11.2 61 1018.1 9.2 NW 12.1 0.0 0.4
14:09 19.0 11.1 60 1017.9 11.4 W 12.1 0.0 0.4
14:10 19.1 11.2 60 1017.9 8.3 NW 12.1 0.0 0.4
14:11 19.1 10.9 59 1017.9 9.8 N 12.1 0.0 0.4
14:12 19.2 11.3 60 1018.0 9.2 W 12.1 0.0 0.4
14:14 19.3 10.8 58 1018.2 11.4 WNW 12.1 0.0 0.4
14:15 19.2 10.5 57 1017.9 9.2 NW 12.1 0.0 0.4
14:17 19.0 10.0 56 1018.0 12.1 NW 12.1 0.0 0.4
14:18 18.9 9.7 55 1018.1 10.7 N 12.1 0.0 0.4
14:46 19.0 9.5 54 1018.0 8.3 NW 12.1 0.0 0.4
14:47 18.9 9.4 54 1018.2 10.7 W 12.1 0.0 0.4
14:48 18.9 9.4 54 1018.1 10.7 W 12.1 0.0 0.4
14:49 18.9 9.4 54 1018.0 7.6 NW 12.1 0.0 0.4
14:50 18.9 9.4 54 1018.1 7.6 N 12.1 0.0 0.4
15:07 19.4 9.9 54 1018.2 12.1 W 12.1 0.0 0.4
15:08 19.4 9.3 52 1017.9 12.1 W 12.1 0.0 0.4
15:09 19.1 9.3 53 1018.1 12.1 NW 12.1 0.0 0.4
15:10 19.0 9.2 53 1018.3 9.8 NW 12.1 0.0 0.4
15:11 18.9 9.1 53 1018.0 12.1 SW 12.1 0.0 0.4
15:12 18.7 9.2 54 1018.1 9.2 W 12.1 0.0 0.4
15:13 18.6 9.1 54 1018.2 7.6 SW 12.1 0.0 0.4
15:14 18.5 9.3 55 1018.0 7.6 W 12.1 0.0 0.4
15:15 18.5 9.3 55 1018.1 7.6 W 12.1 0.0 0.4
15:16 18.4 9.2 55 1018.0 8.3 WNW 12.1 0.0 0.4
15:17 18.4 9.2 55 1017.9 8.3 NW 12.1 0.0 0.4
15:18 18.4 9.2 55 1018.0 10.7 N 12.1 0.0 0.4
15:19 18.5 9.6 56 1018.1 7.6 W 12.1 0.0 0.4
15:20 18.5 9.8 57 1018.0 9.8 W 12.1 0.0 0.4
15:21 18.5 10.1 58 1018.3 9.2 W 12.1 0.0 0.4
15:42 18.7 10.3 58 1018.3 12.1 NW 12.1 0.0 0.4
15:43 18.7 10.8 60 1018.1 9.8 SW 12.1 0.0 0.4
15:44 18.6 10.7 60 1018.0 9.2 E 12.1 0.0 0.4
15:45 18.7 10.8 60 1018.0 7.6 W 12.1 0.0 0.4
15:46 18.7 10.8 60 1018.0 5.4 W 12.1 0.0 0.4
15:47 18.9 11.0 60 1017.9 6.9 W 12.1 0.0 0.4
15:48 18.9 11.0 60 1018.0 6.0 NW 12.1 0.0 0.4
15:49 19.1 11.2 60 1018.3 9.8 WNW 12.1 0.0 0.4
15:50 19.1 11.2 60 1017.9 9.8 E 12.1 0.0 0.4
15:51 19.2 11.0 59 1017.9 8.3 N 12.1 0.0 0.4
16:37 18.4 8.7 53 1018.2 12.1 NW 12.1 0.0 0.4
16:38 18.3 8.6 53 1018.3 6.9 NW 12.1 0.0 0.4
16:39 18.2 8.5 53 1018.0 7.6 N 12.1 0.0 0.4
16:40 18.0 8.6 54 1018.1 9.2 NW 12.1 0.0 0.4
16:41 18.0 8.3 53 1018.2 9.8 NE 12.1 0.0 0.4
16:43 17.9 8.2 53 1018.1 8.3 NNW 12.1 0.0 0.4
16:44 17.9 7.9 52 1018.0 8.3 NW 12.1 0.0 0.4
16:45 17.8 7.8 52 1018.2 7.6 NW 12.1 0.0 0.4
16:46 17.8 7.8 52 1018.1 10.7 W 12.1 0.0 0.4
16:47 17.7 7.7 52 1018.2 9.2 NW 12.1 0.0 0.4
08:51 15.7 13.2 85 1018.1 9.2 W 11.4 0.0 0.0
08:52 15.7 13.2 85 1018.1 9.8 W 11.4 0.0 0.0
09:08 16.3 13.0 81 1018.0 8.3 W 11.4 0.0 0.0
09:09 16.3 13.0 81 1018.0 11.4 SW 11.4 0.0 0.0
09:10 16.3 13.0 81 1018.0 11.4 W 11.4 0.0 0.0
09:21 16.3 12.9 80 1018.1 9.2 W 11.4 0.0 0.0
09:41 16.2 12.4 78 1018.2 9.2 W 11.4 0.0 0.0
09:42 16.2 12.4 78 1018.2 8.3 W 11.4 0.0 0.0
09:43 16.1 12.3 78 1018.0 6.9 SW 11.4 0.0 0.0
10:23 17.6 12.5 72 1018.1 10.7 W 11.4 0.0 0.0
10:24 17.6 12.5 72 1018.2 10.7 W 11.4 0.0 0.0
10:35 17.9 12.6 71 1017.9 7.6 W 11.4 0.0 0.0
10:36 18.0 12.7 71 1018.2 8.3 W 11.4 0.0 0.0
10:37 18.0 12.7 71 1017.8 10.7 W 11.4 0.0 0.0
10:38 17.9 12.6 71 1017.7 10.7 W 11.4 0.0 0.0
10:39 17.8 12.3 70 1017.8 6.9 W 11.4 0.0 0.0
10:40 17.7 12.2 70 1017.9 9.2 W 11.4 0.0 0.0
10:41 17.8 12.3 70 1018.1 9.2 W 11.4 0.0 0.0
10:42 17.8 12.3 70 1018.0 9.2 SW 11.4 0.0 0.0
10:43 17.8 12.3 70 1018.0 9.2 SW 11.4 0.0 0.0
10:44 17.9 12.4 70 1018.1 8.3 SW 11.4 0.0 0.0
10:49 17.9 11.9 68 1018.0 11.4 W 11.4 0.0 0.0
10:50 17.8 11.8 68 1018.0 9.2 SW 11.4 0.0 0.0
10:51 17.7 11.7 68 1018.0 8.3 NW 11.4 0.0 0.0
10:52 17.7 11.7 68 1017.9 7.6 W 11.4 0.0 0.0
10:53 17.7 11.9 69 1017.9 6.9 SW 11.4 0.0 0.0
10:54 17.8 12.3 70 1017.9 6.9 SW 11.4 0.0 0.0
10:55 17.9 12.6 71 1017.9 9.2 W 11.4 0.0 0.0
10:56 18.2 12.9 71 1017.9 8.3 SW 11.4 0.0 0.0
10:57 18.2 12.6 70 1017.9 8.3 NW 11.4 0.0 0.0
12:41 18.4 11.7 65 1018.2 6.0 W 11.4 0.0 0.4
13:12 19.2 11.3 60 1018.2 11.4 NW 11.4 0.0 0.4
13:13 19.2 11.3 60 1017.9 9.2 NE 11.4 0.0 0.4
13:14 19.1 10.9 59 1018.5 9.8 W 11.4 0.0 0.4
13:15 19.0 10.6 58 1018.4 9.8 W 11.4 0.0 0.4
13:16 19.0 10.6 58 1018.4 9.8 W 11.4 0.0 0.4
13:17 19.0 10.6 58 1018.1 9.8 W 11.4 0.0 0.4
13:18 18.7 10.5 59 1018.2 9.2 W 11.4 0.0 0.4
13:19 18.6 10.7 60 1018.0 10.7 W 11.4 0.0 0.4
13:20 18.6 10.4 59 1018.1 10.7 W 11.4 0.0 0.4
13:21 18.5 10.3 59 1018.1 9.8 NW 11.4 0.0 0.4
13:24 18.2 10.3 60 1018.0 11.4 W 11.4 0.0 0.4
13:25 18.2 10.3 60 1018.0 7.6 NW 11.4 0.0 0.4
13:26 18.1 10.2 60 1018.3 11.4 W 11.4 0.0 0.4
13:27 18.1 10.2 60 1018.2 8.3 NW 11.4 0.0 0.4
13:29 18.1 10.5 61 1018.3 8.3 W 11.4 0.0 0.4
13:30 18.2 10.8 62 1018.1 9.2 W 11.4 0.0 0.4
13:31 18.3 10.9 62 1018.3 9.8 NE 11.4 0.0 0.4
13:42 18.1 10.7 62 1018.3 9.8 SE 11.4 0.0 0.4
13:44 18.3 11.1 63 1017.8 6.0 N 11.4 0.0 0.4
14:01 18.1 10.5 61 1018.1 10.7 SW 11.4 0.0 0.4
14:02 18.1 10.5 61 1018.2 10.7 SW 11.4 0.0 0.4
14:03 18.1 10.5 61 1017.9 10.7 SW 11.4 0.0 0.4
14:04 18.1 10.5 61 1018.0 10.7 SW 11.4 0.0 0.4
14:05 18.1 10.5 61 1017.9 10.7 SW 11.4 0.0 0.4
14:16 19.1 10.4 57 1017.9 7.6 NW 11.4 0.0 0.4
14:51 19.1 10.1 56 1018.0 6.0 ENE 11.4 0.0 0.4
14:52 19.1 10.7 58 1018.0 9.8 NW 11.4 0.0 0.4
14:53 19.3 10.3 56 1018.1 9.2 W 11.4 0.0 0.4
15:05 19.6 10.0 54 1018.0 11.4 W 11.4 0.0 0.4
15:06 19.5 9.7 53 1018.1 11.4 N 11.4 0.0 0.4
15:53 19.2 10.2 56 1018.0 11.4 W 11.4 0.0 0.4
15:54 19.2 10.2 56 1018.2 11.4 NW 11.4 0.0 0.4
15:56 19.3 10.6 57 1018.3 7.6 W 11.4 0.0 0.4
15:57 19.3 10.6 57 1018.3 7.6 W 11.4 0.0 0.4
15:58 19.4 10.7 57 1018.0 9.2 SW 11.4 0.0 0.4
15:59 19.4 9.9 54 1017.9 8.3 W 11.4 0.0 0.4
16:00 19.4 9.9 54 1018.3 8.3 W 11.4 0.0 0.4
16:01 19.4 9.9 54 1018.3 8.3 W 11.4 0.0 0.4
16:02 19.4 9.9 54 1018.1 8.3 W 11.4 0.0 0.4
16:36 18.5 9.0 54 1018.0 9.2 W 11.4 0.0 0.4
17:14 17.8 8.1 53 1017.8 11.4 NW 11.4 0.0 0.4
17:15 17.8 8.4 54 1018.0 9.8 NW 11.4 0.0 0.4
17:16 17.8 8.1 53 1018.0 7.6 NW 11.4 0.0 0.4
17:17 17.9 8.5 54 1018.0 7.6 W 11.4 0.0 0.4
17:18 17.9 8.7 55 1018.1 7.6 W 11.4 0.0 0.4
17:19 18.0 8.8 55 1017.8 7.6 E 11.4 0.0 0.4
17:20 18.1 8.7 54 1017.8 8.3 NW 11.4 0.0 0.4
17:21 18.0 8.3 53 1017.7 9.2 NW 11.4 0.0 0.4
17:22 18.0 8.3 53 1017.9 7.6 NW 11.4 0.0 0.4
17:55 18.4 9.5 56 1017.8 11.4 W 11.4 0.0 0.4
17:56 18.4 9.7 57 1017.8 7.6 W 11.4 0.0 0.4
17:57 18.3 9.9 58 1017.9 8.3 SW 11.4 0.0 0.4
17:58 18.3 9.6 57 1017.8 10.7 W 11.4 0.0 0.4
17:59 18.2 8.7 54 1017.8 10.7 NW 11.4 0.0 0.4
18:00 18.2 8.7 54 1017.8 10.7 NW 11.4 0.0 0.4
18:01 18.2 8.7 54 1018.0 10.7 NW 11.4 0.0 0.4
18:02 18.2 8.7 54 1017.8 10.7 NW 11.4 0.0 0.4
18:03 18.2 8.7 54 1018.0 10.7 NW 11.4 0.0 0.4
18:04 18.2 8.7 54 1017.9 10.7 NW 11.4 0.0 0.4
18:48 17.5 9.2 58 1017.6 9.2 NW 11.4 0.0 0.4
18:49 17.4 9.8 61 1017.7 6.9 W 11.4 0.0 0.4
18:50 17.4 10.1 62 1017.7 5.4 W 11.4 0.0 0.4
18:51 17.4 10.3 63 1017.8 7.6 W 11.4 0.0 0.4
18:53 17.3 10.2 63 1017.6 11.4 W 11.4 0.0 0.4
18:54 17.3 10.2 63 1017.7 11.4 W 11.4 0.0 0.4
18:55 17.2 10.3 64 1017.7 11.4 NW 11.4 0.0 0.4
18:56 17.2 10.3 64 1017.7 10.7 N 11.4 0.0 0.4
18:57 17.1 10.5 65 1017.8 6.0 W 11.4 0.0 0.4
18:58 17.1 10.5 65 1017.6 6.0 NW 11.4 0.0 0.4
18:59 17.0 10.6 66 1017.7 9.2 W 11.4 0.0 0.4
19:00 17.0 10.6 66 1017.7 9.2 W 11.4 0.0 0.4
19:01 17.0 10.6 66 1017.8 9.2 W 11.4 0.0 0.4
19:02 17.0 10.6 66 1017.7 9.2 W 11.4 0.0 0.4
19:03 17.0 10.8 67 1017.7 6.0 W 11.4 0.0 0.4
19:04 17.0 10.8 67 1017.6 5.4 N 11.4 0.0 0.4
09:44 16.1 12.5 79 1018.0 7.6 W 10.7 0.0 0.0
09:45 16.1 12.5 79 1018.0 7.6 SW 10.7 0.0 0.0
09:46 16.1 12.5 79 1018.1 7.6 W 10.7 0.0 0.0
09:47 16.1 12.5 79 1018.3 6.9 SW 10.7 0.0 0.0
09:49 16.1 12.5 79 1018.1 6.0 SW 10.7 0.0 0.0
09:50 16.1 12.5 79 1018.1 9.8 W 10.7 0.0 0.0
10:06 16.7 13.2 80 1018.3 10.7 W 10.7 0.0 0.0
10:07 16.7 13.2 80 1018.0 9.2 SW 10.7 0.0 0.0
10:08 16.7 13.2 80 1018.0 10.7 W 10.7 0.0 0.0
10:09 16.7 13.0 79 1018.1 10.7 W 10.7 0.0 0.0
10:10 16.7 13.0 79 1018.1 7.6 SW 10.7 0.0 0.0
10:11 16.8 13.1 79 1018.0 9.8 W 10.7 0.0 0.0
10:25 17.7 12.6 72 1018.1 9.2 W 10.7 0.0 0.0
10:26 17.7 12.6 72 1018.3 9.8 W 10.7 0.0 0.0
10:27 17.7 12.4 71 1018.2 7.6 W 10.7 0.0 0.0
10:28 17.7 12.4 71 1018.1 8.3 W 10.7 0.0 0.0
10:29 17.7 12.4 71 1018.0 8.3 W 10.7 0.0 0.0
10:30 17.8 12.5 71 1017.9 9.2 SW 10.7 0.0 0.0
10:32 17.8 12.5 71 1017.9 7.6 NW 10.7 0.0 0.0
10:33 17.9 12.6 71 1017.8 9.2 SW 10.7 0.0 0.0
10:34 17.9 12.6 71 1017.8 9.2 W 10.7 0.0 0.0
10:46 17.9 12.4 70 1017.8 9.8 SW 10.7 0.0 0.0
10:47 18.0 12.5 70 1017.9 9.2 W 10.7 0.0 0.0
11:07 17.2 12.3 73 1018.1 10.7 NNW 10.7 0.0 0.0
11:08 17.1 12.2 73 1018.0 8.3 W 10.7 0.0 0.1
11:09 17.0 12.1 73 1018.1 7.6 NW 10.7 0.8 0.1
11:10 16.9 12.0 73 1018.1 7.6 NW 10.7 0.8 0.1
11:11 16.9 12.0 73 1018.1 5.4 N 10.7 0.8 0.1
11:12 16.7 11.8 73 1018.3 7.6 NW 10.7 0.8 0.1
11:13 16.7 12.1 74 1018.4 4.5 W 10.7 0.8 0.1
11:15 16.6 12.0 74 1018.3 5.4 N 10.7 0.8 0.1
11:16 16.5 11.9 74 1018.4 6.0 W 10.7 0.8 0.2
11:17 16.5 11.9 74 1018.3 6.9 NW 10.7 2.3 0.3
11:59 17.2 12.5 74 1018.3 10.7 NW 10.7 0.0 0.4
12:00 17.2 12.5 74 1018.5 10.7 NW 10.7 0.0 0.4
12:01 17.2 12.5 74 1018.3 10.7 NW 10.7 0.0 0.4
12:02 17.0 12.1 73 1018.4 10.7 W 10.7 0.0 0.4
12:03 17.0 12.1 73 1018.3 9.2 W 10.7 0.0 0.4
12:04 16.9 12.0 73 1018.3 9.2 W 10.7 0.0 0.4
12:05 16.9 12.0 73 1018.3 6.9 NW 10.7 0.0 0.4
12:06 16.9 12.0 73 1018.4 9.2 W 10.7 0.0 0.4
12:08 16.9 11.8 72 1018.4 7.6 W 10.7 0.0 0.4
12:09 16.9 11.8 72 1018.4 7.6 W 10.7 0.0 0.4
12:10 16.9 11.8 72 1018.3 9.2 NW 10.7 0.0 0.4
12:11 16.9 11.8 72 1018.2 8.3 NW 10.7 0.0 0.4
12:12 16.9 11.8 72 1018.3 9.2 NE 10.7 0.0 0.4
12:13 16.9 11.8 72 1018.4 10.7 N 10.7 0.0 0.4
12:14 16.9 11.8 72 1018.5 8.3 W 10.7 0.0 0.4
12:15 16.9 11.8 72 1018.5 8.3 NW 10.7 0.0 0.4
12:16 16.9 11.8 72 1018.6 6.9 NW 10.7 0.0 0.4
12:17 16.9 11.8 72 1018.5 6.0 NW 10.7 0.0 0.4
12:18 16.9 11.8 72 1018.5 9.2 W 10.7 0.0 0.4
12:19 17.0 11.9 72 1018.5 7.6 NE 10.7 0.0 0.4
12:20 17.1 12.2 73 1018.4 8.3 N 10.7 0.0 0.4
12:21 17.2 12.1 72 1018.6 7.6 NW 10.7 0.0 0.4
13:06 18.7 11.3 62 1017.9 10.7 NW 10.7 0.0 0.4
13:07 18.9 11.5 62 1018.0 9.8 W 10.7 0.0 0.4
13:08 19.0 11.3 61 1018.2 7.6 WNW 10.7 0.0 0.4
13:09 19.0 11.3 61 1018.0 6.9 NW 10.7 0.0 0.4
13:10 19.0 11.3 61 1018.2 6.9 NW 10.7 0.0 0.4
13:11 19.2 11.3 60 1018.0 6.9 W 10.7 0.0 0.4
13:22 18.4 10.3 59 1018.2 6.9 NW 10.7 0.0 0.4
13:23 18.3 10.4 60 1018.2 9.2 NW 10.7 0.0 0.4
13:45 18.5 11.3 63 1018.1 7.6 E 10.7 0.0 0.4
13:46 18.6 11.4 63 1018.1 8.3 W 10.7 0.0 0.4
14:30 18.1 10.0 59 1018.1 7.6 W 10.7 0.0 0.4
14:31 18.0 9.6 58 1018.1 9.2 NW 10.7 0.0 0.4
14:54 19.4 10.7 57 1018.0 9.2 NW 10.7 0.0 0.4
14:55 19.4 10.7 57 1018.0 7.6 SW 10.7 0.0 0.4
14:56 19.4 10.4 56 1018.1 8.3 NE 10.7 0.0 0.4
14:57 19.4 10.4 56 1017.8 8.3 NE 10.7 0.0 0.4
14:58 19.4 10.7 57 1018.2 9.8 SW 10.7 0.0 0.4
14:59 19.4 10.4 56 1018.2 8.3 SW 10.7 0.0 0.4
15:01 19.4 10.4 56 1018.0 8.3 SW 10.7 0.0 0.4
15:02 19.4 10.4 56 1018.0 8.3 SW 10.7 0.0 0.4
15:03 19.6 10.6 56 1018.0 10.7 W 10.7 0.0 0.4
15:04 19.6 10.3 55 1018.2 9.8 NW 10.7 0.0 0.4
15:22 18.5 10.1 58 1017.9 8.3 NW 10.7 0.0 0.4
15:23 18.5 10.3 59 1018.0 9.2 N 10.7 0.0 0.4
15:24 18.5 10.3 59 1018.0 9.2 NW 10.7 0.0 0.4
15:26 18.5 10.1 58 1018.1 8.3 N 10.7 0.0 0.4
15:27 18.5 9.8 57 1018.2 10.7 W 10.7 0.0 0.4
15:28 18.4 9.7 57 1018.3 8.3 NE 10.7 0.0 0.4
15:29 18.4 10.0 58 1018.2 6.9 W 10.7 0.0 0.4
15:30 18.4 10.0 58 1018.0 8.3 NW 10.7 0.0 0.4
15:31 18.5 10.3 59 1018.2 10.7 W 10.7 0.0 0.4
15:32 18.5 10.3 59 1018.2 10.7 NW 10.7 0.0 0.4
15:33 18.5 10.1 58 1018.2 6.0 NW 10.7 0.0 0.4
15:34 18.5 10.1 58 1018.0 8.3 N 10.7 0.0 0.4
15:35 18.5 9.8 57 1018.0 8.3 W 10.7 0.0 0.4
15:36 18.5 10.1 58 1018.2 8.3 NW 10.7 0.0 0.4
15:37 18.6 10.2 58 1018.0 7.6 W 10.7 0.0 0.4
15:38 18.6 10.2 58 1018.2 5.4 N 10.7 0.0 0.4
15:39 18.7 10.3 58 1018.2 6.9 W 10.7 0.0 0.4
15:41 18.7 10.3 58 1017.8 7.6 W 10.7 0.0 0.4
15:52 19.2 10.5 57 1018.0 10.7 N 10.7 0.0 0.4
16:35 18.7 9.2 54 1018.4 8.3 SW 10.7 0.0 0.4
16:48 17.7 7.7 52 1018.0 8.3 NW 10.7 0.0 0.4
16:49 17.7 7.7 52 1018.2 8.3 NW 10.7 0.0 0.4
17:12 17.8 8.1 53 1017.8 10.7 NW 10.7 0.0 0.4
17:13 17.8 8.1 53 1017.8 8.3 W 10.7 0.0 0.4
18:16 17.5 9.2 58 1017.7 6.9 W 10.7 0.0 0.4
18:17 17.5 9.2 58 1017.8 9.2 W 10.7 0.0 0.4
18:18 17.5 9.2 58 1017.7 7.6 WNW 10.7 0.0 0.4
18:19 17.5 9.4 59 1017.7 8.3 W 10.7 0.0 0.4
18:21 17.5 9.2 58 1017.7 8.3 NW 10.7 0.0 0.4
18:22 17.5 9.2 58 1017.7 7.6 SW 10.7 0.0 0.4
18:23 17.5 9.2 58 1017.6 10.7 W 10.7 0.0 0.4
18:24 17.6 9.2 58 1017.6 6.9 NW 10.7 0.0 0.4
18:25 17.7 9.6 59 1017.8 8.3 NNW 10.7 0.0 0.4
18:26 17.8 9.7 59 1017.6 8.3 NW 10.7 0.0 0.4
18:27 17.9 9.8 59 1017.5 6.0 W 10.7 0.0 0.4
18:28 18.0 10.1 60 1017.6 6.9 N 10.7 0.0 0.4
18:29 18.0 9.6 58 1017.7 8.3 W 10.7 0.0 0.4
18:30 18.0 9.6 58 1017.8 10.7 W 10.7 0.0 0.4
18:31 17.9 9.5 58 1017.7 10.7 WNW 10.7 0.0 0.4
18:32 17.9 9.5 58 1017.7 9.2 W 10.7 0.0 0.4
18:33 17.9 9.3 57 1017.8 10.7 W 10.7 0.0 0.4
18:34 17.9 9.3 57 1017.6 8.3 N 10.7 0.0 0.4
18:36 17.9 9.3 57 1017.7 8.3 NW 10.7 0.0 0.4
18:37 17.9 9.3 57 1017.9 8.3 W 10.7 0.0 0.4
18:38 17.9 9.3 57 1017.5 6.9 N 10.7 0.0 0.4
18:39 17.9 9.3 57 1017.5 9.8 NW 10.7 0.0 0.4
18:40 17.8 9.2 57 1017.8 9.8 NW 10.7 0.0 0.4
18:41 17.8 9.4 58 1017.9 6.9 N 10.7 0.0 0.4
18:42 17.8 9.7 59 1017.8 7.6 NNE 10.7 0.0 0.4
18:43 17.9 9.8 59 1017.8 8.3 W 10.7 0.0 0.4
19:05 17.0 10.8 67 1017.7 6.0 NW 10.7 0.0 0.4
02:25 14.2 11.0 81 1018.2 9.8 SW 9.8 0.0 0.0
02:26 14.2 11.0 81 1018.3 7.6 SW 9.8 0.0 0.0
02:27 14.2 11.0 81 1018.1 6.9 W 9.8 0.0 0.0
02:28 14.2 11.0 81 1018.1 6.9 W 9.8 0.0 0.0
02:29 14.2 11.0 81 1018.0 7.6 W 9.8 0.0 0.0
02:30 14.2 11.0 81 1018.1 7.6 SW 9.8 0.0 0.0
02:31 14.2 11.0 81 1018.0 6.0 W 9.8 0.0 0.0
02:32 14.2 11.0 81 1018.3 3.8 W 9.8 0.0 0.0
02:33 14.2 11.0 81 1018.2 5.4 W 9.8 0.0 0.0
02:34 14.2 11.0 81 1018.2 5.4 W 9.8 0.0 0.0
02:35 14.2 11.0 81 1018.1 5.4 SW 9.8 0.0 0.0
08:20 14.8 12.8 88 1018.2 8.3 WSW 9.8 0.0 0.0
08:21 14.9 12.9 88 1018.1 9.2 W 9.8 0.0 0.0
08:23 14.9 12.9 88 1018.0 6.9 SW 9.8 0.0 0.0
08:24 14.9 12.9 88 1017.8 7.6 WNW 9.8 0.0 0.0
08:25 14.9 12.9 88 1017.9 8.3 SW 9.8 0.0 0.0
08:26 15.0 13.0 88 1018.2 6.0 W 9.8 0.0 0.0
08:27 15.0 13.0 88 1018.0 7.6 W 9.8 0.0 0.0
08:28 15.0 13.0 88 1018.1 8.3 SW 9.8 0.0 0.0
08:29 15.1 13.1 88 1018.1 9.2 SW 9.8 0.0 0.0
08:30 15.1 13.1 88 1017.9 7.6 WNW 9.8 0.0 0.0
08:32 15.3 13.3 88 1018.0 6.0 SW 9.8 0.0 0.0
08:33 15.4 13.4 88 1018.2 9.2 SW 9.8 0.0 0.0
09:22 16.3 12.9 80 1018.1 8.3 SW 9.8 0.0 0.0
09:51 16.1 12.5 79 1018.2 9.8 S 9.8 0.0 0.0
09:52 16.1 12.5 79 1018.2 9.8 S 9.8 0.0 0.0
09:53 16.1 12.5 79 1018.3 6.9 W 9.8 0.0 0.0
09:54 16.1 12.5 79 1018.2 6.0 SW 9.8 0.0 0.0
09:55 16.1 12.5 79 1018.3 6.9 SE 9.8 0.0 0.0
09:56 16.1 12.7 80 1017.9 9.8 SW 9.8 0.0 0.0
09:57 16.1 12.7 80 1018.3 9.2 SW 9.8 0.0 0.0
09:58 16.2 12.8 80 1018.3 9.2 W 9.8 0.0 0.0
09:59 16.3 12.9 80 1018.0 9.2 S 9.8 0.0 0.0
10:00 16.3 12.9 80 1018.1 9.2 S 9.8 0.0 0.0
10:01 16.3 12.9 80 1018.1 9.2 S 9.8 0.0 0.0
10:03 16.3 12.9 80 1017.9 9.2 S 9.8 0.0 0.0
10:04 16.3 12.9 80 1018.0 9.2 S 9.8 0.0 0.0
10:05 16.3 12.9 80 1018.2 9.2 S 9.8 0.0 0.0
10:48 17.9 12.1 69 1018.1 9.2 W 9.8 0.0 0.0
11:06 17.4 12.3 72 1018.0 9.8 NW 9.8 0.0 0.0
11:27 15.9 12.1 78 1018.2 9.8 NW 9.8 0.8 0.4
11:28 15.9 12.1 78 1018.2 6.9 NW 9.8 0.8 0.4
11:29 15.9 12.3 79 1018.2 3.1 N 9.8 0.0 0.4
11:30 15.9 12.5 80 1018.1 3.1 NW 9.8 0.0 0.4
11:31 15.9 12.5 80 1018.1 6.0 W 9.8 0.0 0.4
11:32 15.9 12.5 80 1018.0 6.0 WNW 9.8 0.0 0.4
11:33 16.0 12.7 81 1018.1 5.4 WNW 9.8 0.0 0.4
11:34 16.1 12.8 81 1018.0 4.5 N 9.8 0.0 0.4
11:35 16.1 12.8 81 1018.0 2.2 SW 9.8 0.0 0.4
11:36 16.3 13.2 82 1018.2 6.9 W 9.8 0.0 0.4
11:58 17.2 12.7 75 1018.3 9.8 W 9.8 0.0 0.4
12:23 17.3 12.2 72 1018.4 8.3 NW 9.8 0.0 0.4
12:24 17.4 12.3 72 1018.5 8.3 NW 9.8 0.0 0.4
12:42 18.4 11.5 64 1018.3 9.2 WSW 9.8 0.0 0.4
12:43 18.4 11.2 63 1018.3 9.8 W 9.8 0.0 0.4
12:44 18.4 11.2 63 1018.3 9.2 WNW 9.8 0.0 0.4
12:45 18.5 11.1 62 1018.1 8.3 WSW 9.8 0.0 0.4
12:46 18.5 11.3 63 1018.1 6.9 NW 9.8 0.0 0.4
12:47 18.5 11.3 63 1018.3 9.8 W 9.8 0.0 0.4
12:59 18.5 10.8 61 1018.1 9.8 W 9.8 0.0 0.4
13:00 18.5 10.8 61 1018.1 9.8 W 9.8 0.0 0.4
13:01 18.5 10.8 61 1018.0 9.8 W 9.8 0.0 0.4
13:02 18.5 10.8 61 1018.2 9.8 W 9.8 0.0 0.4
13:03 18.5 10.8 61 1017.9 9.8 W 9.8 0.0 0.4
13:04 18.5 10.8 61 1018.1 9.8 W 9.8 0.0 0.4
16:22 18.8 10.6 59 1018.1 6.9 NW 9.8 0.0 0.4
16:23 18.8 10.9 60 1018.1 8.3 W 9.8 0.0 0.4
16:24 19.0 11.1 60 1018.3 9.8 N 9.8 0.0 0.4
16:25 19.0 10.8 59 1018.2 6.9 NW 9.8 0.0 0.4
16:27 19.0 10.3 57 1018.1 7.6 NW 9.8 0.0 0.4
16:28 19.0 10.0 56 1018.2 9.8 W 9.8 0.0 0.4
16:29 18.9 9.7 55 1018.1 8.3 NW 9.8 0.0 0.4
16:30 18.9 9.9 56 1018.0 6.0 W 9.8 0.0 0.4
16:31 18.8 10.4 58 1018.0 6.9 N 9.8 0.0 0.4
16:32 18.8 9.8 56 1018.2 9.2 N 9.8 0.0 0.4
16:33 18.8 9.6 55 1018.0 8.3 NW 9.8 0.0 0.4
16:34 18.7 9.5 55 1018.0 6.9 NW 9.8 0.0 0.4
17:00 17.4 8.3 55 1018.0 9.8 NNW 9.8 0.0 0.4
17:01 17.4 8.3 55 1018.0 9.8 NNW 9.8 0.0 0.4
17:02 17.4 8.3 55 1017.9 9.8 NNW 9.8 0.0 0.4
17:03 17.5 7.8 53 1018.0 7.6 NE 9.8 0.0 0.4
17:04 17.5 7.5 52 1018.2 7.6 NW 9.8 0.0 0.4
17:05 17.6 7.6 52 1017.8 8.3 NW 9.8 0.0 0.4
17:06 17.6 7.9 53 1018.0 7.6 NW 9.8 0.0 0.4
17:07 17.7 8.0 53 1018.0 7.6 NW 9.8 0.0 0.4
17:08 17.9 8.7 55 1017.8 6.0 SW 9.8 0.0 0.4
17:09 17.9 8.7 55 1018.1 7.6 NW 9.8 0.0 0.4
17:10 17.9 8.5 54 1018.1 9.2 NW 9.8 0.0 0.4
17:24 17.9 7.9 52 1017.6 8.3 SW 9.8 0.0 0.4
17:25 17.9 7.9 52 1017.6 8.3 SW 9.8 0.0 0.4
17:41 17.5 9.2 58 1018.0 9.8 W 9.8 0.0 0.4
17:42 17.5 9.2 58 1018.2 9.2 W 9.8 0.0 0.4
17:43 17.4 10.1 62 1018.0 6.9 WNW 9.8 0.0 0.4
17:44 17.4 10.3 63 1017.9 6.9 WNW 9.8 0.0 0.4
17:45 17.5 9.7 60 1018.1 6.9 NW 9.8 0.0 0.4
17:46 17.7 10.1 61 1017.9 4.5 W 9.8 0.0 0.4
17:47 17.9 10.5 62 1018.0 5.4 W 9.8 0.0 0.4
17:48 18.2 10.8 62 1017.8 9.2 W 9.8 0.0 0.4
17:49 18.3 10.4 60 1017.9 9.8 W 9.8 0.0 0.4
17:50 18.4 10.3 59 1018.1 6.9 W 9.8 0.0 0.4
17:51 18.4 10.0 58 1018.0 6.0 W 9.8 0.0 0.4
17:53 18.4 9.7 57 1017.8 8.3 WNW 9.8 0.0 0.4
17:54 18.4 9.7 57 1017.7 6.9 W 9.8 0.0 0.4
18:44 17.9 9.5 58 1017.7 8.3 W 9.8 0.0 0.4
18:45 17.8 9.2 57 1017.5 9.8 NW 9.8 0.0 0.4
18:46 17.7 9.1 57 1017.9 9.8 W 9.8 0.0 0.4
18:47 17.7 9.1 57 1017.9 9.8 W 9.8 0.0 0.4
02:23 14.2 11.0 81 1018.2 9.2 W 9.2 0.0 0.0
02:24 14.2 11.0 81 1018.3 6.9 W 9.2 0.0 0.0
08:09 14.3 12.2 87 1017.9 9.2 S 9.2 0.0 0.0
08:10 14.3 12.2 87 1017.8 9.2 N 9.2 0.0 0.0
08:11 14.4 12.3 87 1017.9 8.3 SSW 9.2 0.0 0.0
08:12 14.4 12.3 87 1017.9 8.3 SSW 9.2 0.0 0.0
08:13 14.5 12.4 87 1018.0 6.9 SW 9.2 0.0 0.0
08:14 14.6 12.5 87 1017.9 5.4 W 9.2 0.0 0.0
08:15 14.6 12.6 88 1018.0 6.9 SW 9.2 0.0 0.0
08:16 14.7 12.7 88 1018.0 7.6 W 9.2 0.0 0.0
08:17 14.8 12.8 88 1017.9 7.6 WSW 9.2 0.0 0.0
08:18 14.8 12.8 88 1018.0 8.3 SW 9.2 0.0 0.0
08:19 14.8 12.8 88 1018.0 8.3 SW 9.2 0.0 0.0
08:31 15.2 13.2 88 1017.9 7.6 W 9.2 0.0 0.0
10:59 18.1 12.6 70 1018.0 7.6 W 9.2 0.0 0.0
11:00 18.1 12.6 70 1017.9 7.6 W 9.2 0.0 0.0
11:01 18.1 12.6 70 1018.0 7.6 W 9.2 0.0 0.0
11:02 18.1 12.6 70 1018.1 7.6 W 9.2 0.0 0.0
11:03 18.1 12.6 70 1018.1 7.6 W 9.2 0.0 0.0
11:04 18.1 12.6 70 1018.2 7.6 W 9.2 0.0 0.0
11:05 18.1 12.6 70 1018.0 7.6 W 9.2 0.0 0.0
11:18 16.4 11.8 74 1018.2 6.9 W 9.2 2.3 0.3
11:19 16.3 11.7 74 1018.4 7.6 NE 9.2 3.0 0.3
11:20 16.2 11.8 75 1018.1 6.9 NW 9.2 2.3 0.3
11:21 16.2 11.8 75 1018.2 6.9 NW 9.2 2.3 0.3
11:22 16.1 11.7 75 1018.2 4.5 W 9.2 0.8 0.3
11:23 16.1 11.7 75 1018.2 6.9 W 9.2 0.8 0.4
11:24 16.0 11.8 76 1018.2 6.9 W 9.2 0.8 0.4
11:40 16.4 13.1 81 1018.0 7.6 W 9.2 0.0 0.4
11:41 16.5 13.2 81 1018.1 6.9 NW 9.2 0.0 0.4
11:42 16.5 13.2 81 1018.2 7.6 NW 9.2 0.0 0.4
11:43 16.6 13.1 80 1018.3 6.9 W 9.2 0.0 0.4
11:44 16.6 13.1 80 1018.2 6.9 NW 9.2 0.0 0.4
11:45 16.7 13.2 80 1018.1 8.3 W 9.2 0.0 0.4
11:46 16.7 13.2 80 1017.8 9.2 W 9.2 0.0 0.4
14:32 18.1 10.0 59 1018.4 7.6 W 9.2 0.0 0.4
14:33 18.1 10.2 60 1018.0 7.6 W 9.2 0.0 0.4
14:34 18.2 10.3 60 1018.1 6.0 W 9.2 0.0 0.4
17:26 17.9 8.2 53 1017.9 7.6 N 9.2 0.0 0.4
17:27 17.9 8.2 53 1017.9 6.0 NW 9.2 0.0 0.4
17:28 17.9 8.5 54 1017.8 8.3 W 9.2 0.0 0.4
17:29 17.9 8.7 55 1017.9 4.5 W 9.2 0.0 0.4
17:30 17.9 9.0 56 1017.7 7.6 SW 9.2 0.0 0.4
17:31 17.8 8.9 56 1017.9 7.6 NW 9.2 0.0 0.4
17:39 17.5 9.4 59 1017.9 9.2 W 9.2 0.0 0.4
17:40 17.5 9.4 59 1017.9 9.2 NW 9.2 0.0 0.4
19:06 17.0 10.8 67 1017.8 6.0 WNW 9.2 0.0 0.4
19:07 16.9 10.7 67 1017.7 6.0 W 9.2 0.0 0.4
19:08 16.9 10.7 67 1017.5 5.4 N 9.2 0.0 0.4
19:10 16.9 10.7 67 1017.6 6.9 NW 9.2 0.0 0.4
19:11 16.9 10.7 67 1017.8 6.9 N 9.2 0.0 0.4
19:12 16.9 10.7 67 1017.9 5.4 W 9.2 0.0 0.4
19:42 16.3 9.9 66 1017.9 9.2 NW 9.2 0.0 0.4
19:43 16.3 9.9 66 1017.9 5.4 W 9.2 0.0 0.4
19:44 16.3 9.9 66 1018.0 5.4 W 9.2 0.0 0.4
19:46 16.3 9.9 66 1017.9 5.4 W 9.2 0.0 0.4
19:47 16.3 9.9 66 1017.9 5.4 W 9.2 0.0 0.4
19:48 16.3 9.9 66 1017.9 3.8 N 9.2 0.0 0.4
19:49 16.3 9.9 66 1017.7 5.4 W 9.2 0.0 0.4
19:50 16.3 9.9 66 1017.8 4.5 W 9.2 0.0 0.4
19:51 16.3 9.9 66 1017.8 3.8 W 9.2 0.0 0.4
19:52 16.3 9.9 66 1017.9 5.4 NW 9.2 0.0 0.4
11:26 16.0 12.0 77 1018.3 6.9 W 8.3 0.8 0.4
17:32 17.6 8.7 56 1017.8 6.9 W 8.3 0.0 0.4
17:33 17.6 9.0 57 1017.7 5.4 NW 8.3 0.0 0.4
17:34 17.6 9.0 57 1017.9 6.0 NW 8.3 0.0 0.4
17:35 17.6 9.2 58 1018.2 6.0 NW 8.3 0.0 0.4
17:36 17.5 9.4 59 1018.0 6.9 W 8.3 0.0 0.4
17:37 17.5 9.7 60 1017.9 4.5 E 8.3 0.0 0.4
19:13 16.8 10.6 67 1017.7 8.3 W 8.3 0.0 0.4
19:14 16.8 10.6 67 1017.8 6.9 W 8.3 0.0 0.4
19:15 16.7 10.5 67 1017.8 3.8 WNW 8.3 0.0 0.4
19:16 16.7 10.5 67 1017.8 3.1 SW 8.3 0.0 0.4
19:17 16.7 10.5 67 1017.7 5.4 NW 8.3 0.0 0.4
19:18 16.7 10.8 68 1017.7 6.9 W 8.3 0.0 0.4
19:20 16.7 10.5 67 1017.9 5.4 SW 8.3 0.0 0.4
19:21 16.7 10.5 67 1018.0 6.9 W 8.3 0.0 0.4
19:22 16.6 10.5 67 1017.7 6.0 WNW 8.3 0.0 0.4
19:23 16.6 10.5 67 1018.0 6.9 W 8.3 0.0 0.4
19:24 16.6 10.5 67 1017.8 6.9 W 8.3 0.0 0.4
19:25 16.6 10.2 66 1017.7 4.5 W 8.3 0.0 0.4
19:26 16.5 10.1 66 1018.0 6.9 W 8.3 0.0 0.4
19:27 16.5 10.1 66 1017.9 5.4 NW 8.3 0.0 0.4
19:28 16.5 10.1 66 1017.8 4.5 NW 8.3 0.0 0.4
01:53 14.2 11.0 81 1018.5 6.9 SW 7.6 0.0 0.0
01:54 14.2 11.0 81 1018.5 6.9 W 7.6 0.0 0.0
01:55 14.2 11.0 81 1018.4 7.6 W 7.6 0.0 0.0
01:56 14.2 11.0 81 1018.2 7.6 W 7.6 0.0 0.0
01:57 14.2 11.0 81 1018.4 6.9 W 7.6 0.0 0.0
01:58 14.2 11.0 81 1018.3 5.4 W 7.6 0.0 0.0
01:59 14.2 11.0 81 1018.5 5.4 W 7.6 0.0 0.0
02:00 14.2 11.0 81 1018.6 5.4 SW 7.6 0.0 0.0
02:01 14.2 11.0 81 1018.1 5.4 NW 7.6 0.0 0.0
02:02 14.2 11.0 81 1018.2 3.8 NW 7.6 0.0 0.0
02:03 14.2 11.0 81 1018.2 6.9 W 7.6 0.0 0.0
02:04 14.2 11.0 81 1018.3 6.0 W 7.6 0.0 0.0
02:05 14.2 11.0 81 1018.2 5.4 W 7.6 0.0 0.0
02:36 14.2 11.0 81 1018.0 6.0 S 7.6 0.0 0.0
02:37 14.2 11.0 81 1018.1 5.4 W 7.6 0.0 0.0
02:38 14.2 11.0 81 1018.0 5.4 SW 7.6 0.0 0.0
02:39 14.2 11.0 81 1017.9 5.4 SW 7.6 0.0 0.0
02:40 14.1 10.9 81 1018.1 4.5 W 7.6 0.0 0.0
04:29 13.6 10.8 83 1017.8 7.6 W 7.6 0.0 0.0
04:30 13.6 10.8 83 1017.8 7.6 W 7.6 0.0 0.0
04:31 13.6 10.8 83 1017.8 4.5 W 7.6 0.0 0.0
04:32 13.6 10.8 83 1017.8 4.5 SW 7.6 0.0 0.0
04:33 13.6 10.8 83 1017.9 4.5 SW 7.6 0.0 0.0
04:34 13.6 10.8 83 1018.0 5.4 W 7.6 0.0 0.0
04:35 13.6 10.8 83 1017.9 4.5 W 7.6 0.0 0.0
04:36 13.6 10.8 83 1017.8 3.1 SW 7.6 0.0 0.0
04:37 13.7 10.9 83 1017.9 4.5 W 7.6 0.0 0.0
04:38 13.7 10.9 83 1017.7 4.5 W 7.6 0.0 0.0
04:39 13.7 10.9 83 1017.6 3.8 W 7.6 0.0 0.0
11:37 16.3 13.2 82 1018.2 7.6 W 7.6 0.0 0.4
19:31 16.4 10.0 66 1017.7 7.6 NW 7.6 0.0 0.4
19:32 16.4 10.0 66 1017.8 6.9 SE 7.6 0.0 0.4
19:33 16.4 10.0 66 1017.9 6.0 N 7.6 0.0 0.4
19:34 16.3 9.9 66 1017.9 4.5 W 7.6 0.0 0.4
19:35 16.3 9.9 66 1017.9 6.0 NW 7.6 0.0 0.4
19:36 16.3 9.9 66 1017.9 3.1 W 7.6 0.0 0.4
19:37 16.3 9.9 66 1018.0 6.9 NW 7.6 0.0 0.4
19:38 16.3 9.9 66 1017.8 7.6 W 7.6 0.0 0.4
19:39 16.3 9.9 66 1018.0 6.0 W 7.6 0.0 0.4
19:40 16.3 9.9 66 1017.9 5.4 NW 7.6 0.0 0.4
19:41 16.3 9.9 66 1017.9 7.6 S 7.6 0.0 0.4
01:27 13.9 10.7 81 1018.4 6.9 S 6.9 0.0 0.0
01:28 13.9 10.7 81 1018.6 4.5 WSW 6.9 0.0 0.0
01:29 13.9 10.7 81 1018.5 6.9 S 6.9 0.0 0.0
01:30 13.9 10.7 81 1018.5 6.0 W 6.9 0.0 0.0
01:31 13.9 10.7 81 1018.5 5.4 SW 6.9 0.0 0.0
01:32 14.0 10.8 81 1018.6 6.9 WSW 6.9 0.0 0.0
01:33 14.0 10.8 81 1018.6 5.4 SW 6.9 0.0 0.0
01:34 14.0 10.8 81 1018.5 6.0 SW 6.9 0.0 0.0
01:35 14.0 10.8 81 1018.5 6.9 SW 6.9 0.0 0.0
01:36 14.0 10.8 81 1018.4 6.0 SW 6.9 0.0 0.0
01:37 14.0 10.8 81 1018.4 6.0 W 6.9 0.0 0.0
01:38 14.0 10.8 81 1018.4 6.0 SW 6.9 0.0 0.0
01:39 14.0 10.8 81 1018.5 4.5 SW 6.9 0.0 0.0
01:40 14.0 10.8 81 1018.5 4.5 SW 6.9 0.0 0.0
01:41 14.1 10.9 81 1018.6 5.4 W 6.9 0.0 0.0
01:42 14.1 10.9 81 1018.6 6.9 SW 6.9 0.0 0.0
01:43 14.1 10.9 81 1018.4 6.9 SW 6.9 0.0 0.0
01:44 14.1 10.9 81 1018.4 5.4 SW 6.9 0.0 0.0
01:45 14.1 10.9 81 1018.6 6.0 SW 6.9 0.0 0.0
01:46 14.1 10.9 81 1018.3 6.9 W 6.9 0.0 0.0
01:47 14.1 10.9 81 1018.4 6.9 SW 6.9 0.0 0.0
01:48 14.1 10.9 81 1018.5 4.5 W 6.9 0.0 0.0
01:49 14.1 10.9 81 1018.4 5.4 W 6.9 0.0 0.0
01:50 14.1 10.9 81 1018.4 4.5 WNW 6.9 0.0 0.0
01:51 14.2 11.0 81 1018.4 5.4 SW 6.9 0.0 0.0
01:52 14.2 11.0 81 1018.4 5.4 SW 6.9 0.0 0.0
02:06 14.2 11.0 81 1018.1 6.9 WNW 6.9 0.0 0.0
02:07 14.2 11.0 81 1018.2 6.0 W 6.9 0.0 0.0
02:08 14.2 11.0 81 1018.1 5.4 W 6.9 0.0 0.0
02:09 14.2 11.0 81 1018.2 4.5 W 6.9 0.0 0.0
02:10 14.2 11.0 81 1018.3 5.4 W 6.9 0.0 0.0
02:11 14.2 11.0 81 1018.2 5.4 W 6.9 0.0 0.0
02:12 14.2 11.0 81 1018.3 3.8 W 6.9 0.0 0.0
02:13 14.2 11.0 81 1018.3 5.4 W 6.9 0.0 0.0
02:14 14.2 11.0 81 1018.3 5.4 W 6.9 0.0 0.0
02:15 14.2 11.0 81 1018.3 6.9 W 6.9 0.0 0.0
02:16 14.2 11.0 81 1018.1 5.4 W 6.9 0.0 0.0
02:17 14.2 11.0 81 1018.2 6.9 W 6.9 0.0 0.0
02:18 14.2 11.0 81 1018.4 6.9 SW 6.9 0.0 0.0
02:19 14.2 11.0 81 1018.3 6.9 W 6.9 0.0 0.0
02:20 14.2 11.0 81 1018.3 6.9 W 6.9 0.0 0.0
02:21 14.2 11.0 81 1018.4 6.9 SW 6.9 0.0 0.0
02:22 14.2 11.0 81 1018.2 6.0 SW 6.9 0.0 0.0
03:23 13.5 10.3 81 1017.9 6.9 W 6.9 0.0 0.0
03:24 13.5 10.3 81 1017.9 6.0 SW 6.9 0.0 0.0
03:25 13.5 10.3 81 1017.8 4.5 NW 6.9 0.0 0.0
03:26 13.5 10.3 81 1018.0 6.0 W 6.9 0.0 0.0
03:27 13.5 10.3 81 1017.8 4.5 W 6.9 0.0 0.0
03:28 13.5 10.3 81 1017.9 4.5 W 6.9 0.0 0.0
03:29 13.5 10.3 81 1017.7 4.5 W 6.9 0.0 0.0
03:30 13.5 10.3 81 1017.8 4.5 W 6.9 0.0 0.0
03:31 13.5 10.3 81 1017.9 4.5 W 6.9 0.0 0.0
03:32 13.5 10.3 81 1017.9 4.5 N 6.9 0.0 0.0
03:33 13.5 10.3 81 1017.9 5.4 W 6.9 0.0 0.0
03:42 13.4 10.4 82 1018.0 6.9 W 6.9 0.0 0.0
03:43 13.4 10.4 82 1017.7 5.4 W 6.9 0.0 0.0
03:44 13.4 10.4 82 1017.9 5.4 W 6.9 0.0 0.0
03:45 13.4 10.4 82 1017.8 3.8 WSW 6.9 0.0 0.0
03:46 13.4 10.4 82 1017.8 3.8 W 6.9 0.0 0.0
03:47 13.4 10.4 82 1017.7 3.8 W 6.9 0.0 0.0
03:48 13.4 10.4 82 1017.8 4.5 W 6.9 0.0 0.0
03:49 13.4 10.4 82 1017.8 5.4 W 6.9 0.0 0.0
03:50 13.4 10.4 82 1017.7 6.0 NW 6.9 0.0 0.0
03:51 13.4 10.4 82 1017.9 3.8 N 6.9 0.0 0.0
19:29 16.5 10.1 66 1017.9 5.4 NW 6.9 0.0 0.4
19:53 16.3 9.9 66 1017.8 6.9 W 6.9 0.0 0.4
19:54 16.3 9.9 66 1017.9 6.0 WNW 6.9 0.0 0.4
19:55 16.2 9.8 66 1017.8 5.4 WNW 6.9 0.0 0.4
19:56 16.2 9.8 66 1017.9 6.9 W 6.9 0.0 0.4
19:57 16.2 9.8 66 1017.7 5.4 W 6.9 0.0 0.4
19:58 16.2 9.8 66 1018.0 6.9 NW 6.9 0.0 0.4
20:00 16.2 9.8 66 1018.0 5.4 W 6.9 0.0 0.4
20:01 16.2 9.8 66 1018.0 5.4 W 6.9 0.0 0.4
20:02 16.2 9.8 66 1017.7 5.4 W 6.9 0.0 0.4
20:03 16.2 9.8 66 1017.7 5.4 W 6.9 0.0 0.4
20:04 16.2 9.8 66 1017.9 5.4 W 6.9 0.0 0.4
20:05 16.2 9.8 66 1017.8 5.4 W 6.9 0.0 0.4
20:06 16.2 10.1 67 1017.7 5.4 W 6.9 0.0 0.4
20:07 16.2 10.1 67 1017.7 4.5 S 6.9 0.0 0.4
20:08 16.3 10.2 67 1017.6 3.8 W 6.9 0.0 0.4
20:11 16.4 10.3 67 1017.8 6.9 NW 6.9 0.0 0.4
20:12 16.4 10.3 67 1017.8 5.4 W 6.9 0.0 0.4
20:13 16.4 10.3 67 1017.9 3.8 W 6.9 0.0 0.4
20:15 16.5 10.4 67 1017.9 6.0 W 6.9 0.0 0.4
20:16 16.5 10.4 67 1017.9 3.8 WNW 6.9 0.0 0.4
20:17 16.6 10.5 67 1017.7 3.8 W 6.9 0.0 0.4
20:18 16.6 10.5 67 1017.9 3.8 N 6.9 0.0 0.4
20:19 16.6 10.5 67 1017.8 3.8 W 6.9 0.0 0.4
20:20 16.6 10.5 67 1017.7 3.1 NW 6.9 0.0 0.4
20:21 16.7 10.5 67 1018.0 3.1 NW 6.9 0.0 0.4
20:22 16.7 10.5 67 1017.9 2.2 NW 6.9 0.0 0.4
01:22 13.8 10.6 81 1018.5 6.0 SW 6.0 0.0 0.0
01:23 13.8 10.6 81 1018.7 5.4 S 6.0 0.0 0.0
01:24 13.9 10.7 81 1018.5 4.5 W 6.0 0.0 0.0
01:25 13.9 10.7 81 1018.6 5.4 W 6.0 0.0 0.0
01:26 13.9 10.7 81 1018.5 5.4 SW 6.0 0.0 0.0
02:41 14.1 10.9 81 1018.0 3.8 W 6.0 0.0 0.0
02:42 14.1 10.9 81 1018.1 3.8 SW 6.0 0.0 0.0
02:43 14.1 10.9 81 1018.1 3.1 W 6.0 0.0 0.0
02:44 14.0 10.8 81 1018.0 4.5 W 6.0 0.0 0.0
02:45 14.0 10.8 81 1018.0 4.5 W 6.0 0.0 0.0
02:56 13.8 10.6 81 1017.9 6.0 SW 6.0 0.0 0.0
02:57 13.8 10.6 81 1018.0 3.8 W 6.0 0.0 0.0
02:58 13.8 10.6 81 1018.0 3.8 W 6.0 0.0 0.0
02:59 13.8 10.6 81 1017.9 6.0 W 6.0 0.0 0.0
03:00 13.8 10.6 81 1018.1 6.0 W 6.0 0.0 0.0
03:01 13.8 10.6 81 1018.0 6.0 W 6.0 0.0 0.0
03:02 13.8 10.6 81 1018.1 6.0 W 6.0 0.0 0.0
03:03 13.8 10.6 81 1018.0 6.0 W 6.0 0.0 0.0
03:04 13.8 10.6 81 1017.9 6.0 W 6.0 0.0 0.0
03:05 13.8 10.6 81 1017.8 6.0 W 6.0 0.0 0.0
03:06 13.8 10.6 81 1018.2 6.0 W 6.0 0.0 0.0
03:07 13.7 10.5 81 1017.9 3.8 WSW 6.0 0.0 0.0
03:08 13.7 10.5 81 1017.9 4.5 W 6.0 0.0 0.0
03:09 13.6 10.4 81 1017.9 4.5 W 6.0 0.0 0.0
03:10 13.6 10.4 81 1017.9 5.4 W 6.0 0.0 0.0
03:11 13.6 10.4 81 1018.0 4.5 W 6.0 0.0 0.0
03:12 13.6 10.4 81 1017.9 4.5 W 6.0 0.0 0.0
03:13 13.6 10.4 81 1017.9 5.4 W 6.0 0.0 0.0
03:14 13.6 10.4 81 1017.8 5.4 SW 6.0 0.0 0.0
03:15 13.6 10.4 81 1017.9 4.5 SW 6.0 0.0 0.0
03:21 13.5 10.3 81 1017.9 6.0 SW 6.0 0.0 0.0
03:22 13.5 10.3 81 1018.0 6.0 W 6.0 0.0 0.0
03:34 13.5 10.3 81 1017.8 5.4 NW 6.0 0.0 0.0
03:35 13.5 10.3 81 1017.8 4.5 W 6.0 0.0 0.0
03:36 13.5 10.3 81 1017.9 3.8 W 6.0 0.0 0.0
03:52 13.4 10.4 82 1018.0 5.4 W 6.0 0.0 0.0
03:53 13.4 10.4 82 1017.9 4.5 SW 6.0 0.0 0.0
03:54 13.4 10.4 82 1017.6 5.4 NW 6.0 0.0 0.0
03:55 13.4 10.4 82 1017.6 6.0 W 6.0 0.0 0.0
03:56 13.4 10.4 82 1018.1 4.5 W 6.0 0.0 0.0
03:57 13.4 10.4 82 1018.0 2.2 W 6.0 0.0 0.0
03:58 13.4 10.4 82 1018.0 3.8 W 6.0 0.0 0.0
03:59 13.4 10.4 82 1017.9 3.8 W 6.0 0.0 0.0
04:00 13.4 10.4 82 1017.7 3.8 SW 6.0 0.0 0.0
04:01 13.4 10.4 82 1017.9 3.8 W 6.0 0.0 0.0
04:02 13.3 10.3 82 1018.0 3.8 W 6.0 0.0 0.0
04:03 13.3 10.3 82 1018.1 3.1 W 6.0 0.0 0.0
04:04 13.3 10.3 82 1018.1 3.1 W 6.0 0.0 0.0
04:05 13.3 10.3 82 1017.9 3.8 W 6.0 0.0 0.0
04:23 13.5 10.7 83 1017.8 6.0 W 6.0 0.0 0.0
04:24 13.5 10.7 83 1017.8 5.4 W 6.0 0.0 0.0
04:25 13.5 10.7 83 1017.5 3.8 W 6.0 0.0 0.0
04:26 13.5 10.7 83 1018.1 5.4 W 6.0 0.0 0.0
04:27 13.6 10.8 83 1017.7 4.5 W 6.0 0.0 0.0
04:28 13.6 10.8 83 1017.7 4.5 W 6.0 0.0 0.0
20:23 16.7 10.5 67 1017.8 3.8 WNW 6.0 0.0 0.4
20:24 16.7 10.3 66 1017.9 4.5 NW 6.0 0.0 0.4
20:25 16.7 10.3 66 1017.8 3.1 W 6.0 0.0 0.4
01:20 13.8 10.6 81 1018.7 5.4 W 5.4 0.0 0.0
01:21 13.8 10.6 81 1018.5 5.4 W 5.4 0.0 0.0
02:46 14.0 10.8 81 1018.2 3.8 W 5.4 0.0 0.0
02:47 14.0 10.8 81 1017.8 3.8 W 5.4 0.0 0.0
02:48 14.0 10.8 81 1017.9 3.8 SW 5.4 0.0 0.0
02:49 14.0 10.8 81 1018.4 4.5 W 5.4 0.0 0.0
02:53 13.9 10.7 81 1018.1 5.4 SW 5.4 0.0 0.0
02:54 13.9 10.7 81 1018.1 5.4 S 5.4 0.0 0.0
03:16 13.5 10.3 81 1017.7 4.5 W 5.4 0.0 0.0
03:17 13.5 10.3 81 1018.0 3.8 W 5.4 0.0 0.0
03:18 13.5 10.3 81 1017.8 3.8 W 5.4 0.0 0.0
03:19 13.5 10.3 81 1017.7 5.4 SW 5.4 0.0 0.0
03:20 13.5 10.3 81 1018.0 4.5 W 5.4 0.0 0.0
03:37 13.4 10.4 82 1017.9 3.1 W 5.4 0.0 0.0
03:38 13.4 10.4 82 1018.0 3.8 W 5.4 0.0 0.0
03:39 13.4 10.4 82 1017.8 4.5 NW 5.4 0.0 0.0
03:40 13.4 10.4 82 1017.8 3.8 N 5.4 0.0 0.0
03:41 13.4 10.4 82 1017.8 3.8 W 5.4 0.0 0.0
04:07 13.3 10.3 82 1017.9 4.5 W 5.4 0.0 0.0
04:08 13.3 10.3 82 1017.9 3.8 W 5.4 0.0 0.0
04:09 13.3 10.3 82 1017.8 3.8 SW 5.4 0.0 0.0
04:10 13.4 10.4 82 1017.9 3.1 SW 5.4 0.0 0.0
04:11 13.4 10.4 82 1018.0 4.5 SW 5.4 0.0 0.0
04:12 13.4 10.4 82 1017.8 3.8 W 5.4 0.0 0.0
04:13 13.4 10.4 82 1017.9 3.8 W 5.4 0.0 0.0
04:14 13.4 10.4 82 1017.9 3.8 W 5.4 0.0 0.0
04:15 13.4 10.4 82 1017.9 3.8 W 5.4 0.0 0.0
04:16 13.4 10.4 82 1017.9 4.5 W 5.4 0.0 0.0
04:17 13.4 10.4 82 1017.9 3.8 N 5.4 0.0 0.0
04:40 13.7 10.9 83 1017.6 3.8 W 5.4 0.0 0.0
04:41 13.7 10.9 83 1017.8 3.1 W 5.4 0.0 0.0
04:42 13.7 10.9 83 1017.8 2.2 W 5.4 0.0 0.0
04:43 13.7 10.9 83 1017.8 3.1 W 5.4 0.0 0.0
04:44 13.7 10.9 83 1017.8 3.8 W 5.4 0.0 0.0
05:19 13.2 10.4 83 1017.8 5.4 W 5.4 0.0 0.0
05:20 13.2 10.4 83 1017.7 3.1 N 5.4 0.0 0.0
05:21 13.2 10.4 83 1017.7 3.1 N 5.4 0.0 0.0
05:22 13.2 10.4 83 1017.6 3.1 NW 5.4 0.0 0.0
05:23 13.2 10.4 83 1018.0 3.1 N 5.4 0.0 0.0
05:24 13.2 10.4 83 1018.0 3.1 N 5.4 0.0 0.0
05:25 13.2 10.4 83 1017.7 2.2 W 5.4 0.0 0.0
05:26 13.2 10.4 83 1017.7 2.2 W 5.4 0.0 0.0
05:27 13.2 10.4 83 1017.8 3.1 W 5.4 0.0 0.0
05:28 13.2 10.4 83 1017.6 3.1 N 5.4 0.0 0.0
05:29 13.1 10.3 83 1017.8 2.2 WNW 5.4 0.0 0.0
08:07 14.2 12.1 87 1018.2 5.4 SW 5.4 0.0 0.0
20:09 16.3 10.2 67 1017.8 3.1 NW 5.4 0.0 0.4
20:10 16.3 10.2 67 1017.9 4.5 WNW 5.4 0.0 0.4
20:37 16.0 9.9 67 1017.6 5.4 W 5.4 0.0 0.4
20:38 16.0 9.9 67 1017.7 3.1 W 5.4 0.0 0.4
20:39 15.9 9.8 67 1017.7 2.2 W 5.4 0.0 0.4
20:40 15.8 9.7 67 1017.8 3.8 W 5.4 0.0 0.4
20:41 15.8 9.7 67 1017.8 2.2 W 5.4 0.0 0.4
20:42 15.7 9.6 67 1017.6 2.2 W 5.4 0.0 0.4
20:44 15.7 9.6 67 1017.6 3.8 N 5.4 0.0 0.4
20:45 15.7 9.6 67 1017.7 3.8 N 5.4 0.0 0.4
20:46 15.6 9.7 68 1017.6 3.1 NW 5.4 0.0 0.4
20:47 15.5 9.6 68 1017.7 3.1 NW 5.4 0.0 0.4
01:10 13.7 10.3 80 1018.4 4.5 W 4.5 0.0 0.0
01:11 13.7 10.3 80 1018.6 4.5 SW 4.5 0.0 0.0
01:12 13.7 10.3 80 1018.6 3.8 SW 4.5 0.0 0.0
01:13 13.7 10.3 80 1018.3 3.8 SW 4.5 0.0 0.0
01:14 13.8 10.4 80 1018.7 4.5 W 4.5 0.0 0.0
01:15 13.8 10.6 81 1018.4 3.1 SW 4.5 0.0 0.0
01:16 13.8 10.6 81 1018.3 3.8 W 4.5 0.0 0.0
01:17 13.8 10.6 81 1018.6 3.8 W 4.5 0.0 0.0
01:18 13.8 10.6 81 1018.7 3.8 SW 4.5 0.0 0.0
01:19 13.8 10.6 81 1018.7 3.1 W 4.5 0.0 0.0
02:50 14.0 10.8 81 1018.0 3.1 SW 4.5 0.0 0.0
02:51 13.9 10.7 81 1018.1 3.8 S 4.5 0.0 0.0
02:52 13.9 10.7 81 1018.0 3.8 W 4.5 0.0 0.0
04:06 13.3 10.3 82 1017.9 3.8 W 4.5 0.0 0.0
04:18 13.4 10.4 82 1018.1 3.8 W 4.5 0.0 0.0
04:19 13.5 10.5 82 1017.9 3.8 SW 4.5 0.0 0.0
04:20 13.5 10.5 82 1017.8 3.8 SW 4.5 0.0 0.0
04:21 13.5 10.5 82 1017.8 3.8 SW 4.5 0.0 0.0
04:22 13.5 10.5 82 1017.9 4.5 N 4.5 0.0 0.0
04:45 13.6 10.8 83 1017.8 4.5 SW 4.5 0.0 0.0
04:46 13.6 10.8 83 1017.7 4.5 W 4.5 0.0 0.0
04:47 13.6 10.8 83 1017.7 3.1 W 4.5 0.0 0.0
04:48 13.6 10.8 83 1017.7 3.1 W 4.5 0.0 0.0
04:49 13.6 10.8 83 1017.7 3.1 W 4.5 0.0 0.0
04:50 13.6 10.8 83 1017.6 3.8 W 4.5 0.0 0.0
04:51 13.5 10.7 83 1017.8 3.1 W 4.5 0.0 0.0
04:52 13.5 10.7 83 1017.6 2.2 W 4.5 0.0 0.0
04:53 13.5 10.7 83 1017.7 3.1 W 4.5 0.0 0.0
04:54 13.5 10.7 83 1018.0 3.8 W 4.5 0.0 0.0
04:55 13.5 10.7 83 1017.7 2.2 W 4.5 0.0 0.0
05:35 13.0 10.2 83 1017.8 4.5 W 4.5 0.0 0.0
05:36 12.9 10.1 83 1017.9 3.1 N 4.5 0.0 0.0
05:37 12.9 10.1 83 1017.8 3.8 W 4.5 0.0 0.0
05:38 12.9 9.9 82 1017.8 3.8 SW 4.5 0.0 0.0
05:39 12.9 9.9 82 1017.8 3.1 W 4.5 0.0 0.0
05:40 12.9 9.9 82 1017.7 3.1 SW 4.5 0.0 0.0
05:41 12.8 9.8 82 1017.8 2.2 SW 4.5 0.0 0.0
05:42 12.8 9.8 82 1017.7 1.6 SW 4.5 0.0 0.0
05:43 12.8 9.8 82 1017.9 1.6 SW 4.5 0.0 0.0
05:44 12.7 9.7 82 1018.0 1.6 SW 4.5 0.0 0.0
05:45 12.7 9.7 82 1017.9 0.7 SW 4.5 0.0 0.0
08:06 14.1 12.0 87 1017.7 4.5 SW 4.5 0.0 0.0
20:26 16.7 10.3 66 1017.5 3.1 NW 4.5 0.0 0.4
20:27 16.7 10.3 66 1017.8 3.1 NW 4.5 0.0 0.4
20:29 16.6 10.2 66 1017.9 3.1 W 4.5 0.0 0.4
20:30 16.5 10.1 66 1017.7 3.1 N 4.5 0.0 0.4
20:31 16.4 10.0 66 1017.7 3.8 NW 4.5 0.0 0.4
20:32 16.4 10.0 66 1017.6 3.1 W 4.5 0.0 0.4
20:33 16.3 9.9 66 1017.7 2.2 NW 4.5 0.0 0.4
20:34 16.3 9.9 66 1017.7 1.6 NW 4.5 0.0 0.4
01:09 13.7 10.3 80 1018.6 3.8 W 3.8 0.0 0.0
04:56 13.4 10.6 83 1017.7 2.2 W 3.8 0.0 0.0
04:57 13.4 10.6 83 1017.8 2.2 W 3.8 0.0 0.0
04:58 13.4 10.6 83 1017.7 1.6 W 3.8 0.0 0.0
04:59 13.4 10.6 83 1017.7 2.2 W 3.8 0.0 0.0
05:00 13.4 10.6 83 1017.6 3.1 W 3.8 0.0 0.0
05:01 13.4 10.6 83 1017.6 3.1 W 3.8 0.0 0.0
05:02 13.4 10.6 83 1017.6 3.1 W 3.8 0.0 0.0
05:03 13.4 10.6 83 1017.8 3.1 W 3.8 0.0 0.0
05:04 13.4 10.6 83 1017.5 3.1 W 3.8 0.0 0.0
05:16 13.2 10.4 83 1017.9 3.8 W 3.8 0.0 0.0
05:17 13.2 10.4 83 1017.9 3.1 N 3.8 0.0 0.0
05:18 13.2 10.4 83 1017.6 3.1 W 3.8 0.0 0.0
05:46 12.7 9.7 82 1017.5 0.0 SW 3.8 0.0 0.0
05:47 12.6 9.6 82 1017.7 0.0 SW 3.8 0.0 0.0
07:49 13.2 10.7 85 1018.1 3.8 W 3.8 0.0 0.0
07:50 13.2 10.7 85 1017.9 3.8 W 3.8 0.0 0.0
07:51 13.3 10.8 85 1018.0 3.8 W 3.8 0.0 0.0
07:52 13.3 10.8 85 1018.2 3.8 W 3.8 0.0 0.0
07:54 13.3 10.8 85 1017.9 3.8 W 3.8 0.0 0.0
07:55 13.4 10.9 85 1017.8 3.1 W 3.8 0.0 0.0
07:56 13.5 11.0 85 1017.9 3.1 N 3.8 0.0 0.0
07:57 13.5 11.0 85 1018.0 3.1 N 3.8 0.0 0.0
07:58 13.5 11.2 86 1017.8 3.1 N 3.8 0.0 0.0
07:59 13.6 11.3 86 1017.9 3.1 W 3.8 0.0 0.0
08:00 13.6 11.3 86 1018.0 3.1 W 3.8 0.0 0.0
08:01 13.6 11.3 86 1017.9 3.1 W 3.8 0.0 0.0
08:02 13.6 11.3 86 1017.7 3.1 W 3.8 0.0 0.0
08:03 13.6 11.3 86 1017.9 3.1 W 3.8 0.0 0.0
20:35 16.2 9.8 66 1017.8 3.8 W 3.8 0.0 0.4
20:36 16.1 9.8 66 1017.8 1.6 NW 3.8 0.0 0.4
20:48 15.4 9.5 68 1017.7 1.6 NW 3.8 0.0 0.4
20:49 15.4 9.5 68 1017.5 2.2 W 3.8 0.0 0.4
20:50 15.4 9.7 69 1017.7 3.1 N 3.8 0.0 0.4
20:51 15.3 9.7 69 1017.6 3.1 W 3.8 0.0 0.4
20:53 15.2 9.6 69 1017.6 1.6 NW 3.8 0.0 0.4
20:54 15.2 9.6 69 1017.7 1.6 W 3.8 0.0 0.4
20:55 15.2 9.6 69 1017.7 3.1 W 3.8 0.0 0.4
00:00 13.8 9.8 77 1018.8 2.2 SW 3.1 0.0 0.0
00:01 13.8 9.8 77 1018.8 2.2 SW 3.1 0.0 0.0
00:02 13.8 9.8 77 1018.7 2.2 SW 3.1 0.0 0.0
00:03 13.8 9.8 77 1018.8 2.2 SW 3.1 0.0 0.0
00:04 13.7 9.7 77 1018.6 1.6 SW 3.1 0.0 0.0
00:05 13.7 9.7 77 1018.9 1.6 W 3.1 0.0 0.0
00:06 13.7 9.7 77 1018.6 1.6 W 3.1 0.0 0.0
00:07 13.7 9.7 77 1018.7 1.6 W 3.1 0.0 0.0
00:08 13.7 9.7 77 1018.7 1.6 W 3.1 0.0 0.0
00:30 13.5 9.7 78 1018.8 3.1 SW 3.1 0.0 0.0
00:31 13.5 9.9 79 1018.7 3.1 WSW 3.1 0.0 0.0
00:32 13.5 9.9 79 1018.8 3.1 W 3.1 0.0 0.0
00:33 13.5 9.9 79 1018.9 2.2 W 3.1 0.0 0.0
00:34 13.5 9.9 79 1018.9 3.1 W 3.1 0.0 0.0
00:35 13.5 9.9 79 1019.0 3.1 W 3.1 0.0 0.0
00:36 13.5 9.9 79 1018.9 3.1 SW 3.1 0.0 0.0
00:37 13.5 9.9 79 1018.9 2.2 SW 3.1 0.0 0.0
00:38 13.5 9.9 79 1018.9 2.2 SW 3.1 0.0 0.0
00:39 13.5 9.9 79 1018.9 1.6 W 3.1 0.0 0.0
00:40 13.5 9.9 79 1018.9 1.6 W 3.1 0.0 0.0
00:41 13.5 9.9 79 1019.0 2.2 SW 3.1 0.0 0.0
00:42 13.5 9.9 79 1018.9 3.1 W 3.1 0.0 0.0
00:43 13.5 9.9 79 1018.8 3.1 SW 3.1 0.0 0.0
00:44 13.5 9.9 79 1018.7 3.1 W 3.1 0.0 0.0
00:45 13.5 9.9 79 1019.0 2.2 SW 3.1 0.0 0.0
00:46 13.5 9.9 79 1018.9 2.2 SW 3.1 0.0 0.0
00:47 13.5 9.9 79 1018.9 1.6 SW 3.1 0.0 0.0
00:48 13.5 10.1 80 1018.8 2.2 SW 3.1 0.0 0.0
00:49 13.5 10.1 80 1018.8 1.6 SW 3.1 0.0 0.0
00:50 13.5 10.1 80 1018.8 1.6 SW 3.1 0.0 0.0
00:51 13.5 10.1 80 1018.8 2.2 SW 3.1 0.0 0.0
00:52 13.5 10.1 80 1018.8 2.2 SW 3.1 0.0 0.0
00:53 13.6 10.2 80 1018.7 1.6 SW 3.1 0.0 0.0
00:54 13.6 10.2 80 1018.7 1.6 SW 3.1 0.0 0.0
05:05 13.4 10.6 83 1017.7 3.1 W 3.1 0.0 0.0
05:06 13.3 10.5 83 1017.6 3.1 W 3.1 0.0 0.0
05:07 13.3 10.5 83 1017.8 2.2 W 3.1 0.0 0.0
05:08 13.3 10.5 83 1017.6 2.2 W 3.1 0.0 0.0
05:09 13.3 10.5 83 1017.8 3.1 W 3.1 0.0 0.0
05:10 13.3 10.5 83 1017.6 2.2 W 3.1 0.0 0.0
05:11 13.3 10.5 83 1017.9 2.2 W 3.1 0.0 0.0
05:12 13.2 10.4 83 1017.7 3.1 NW 3.1 0.0 0.0
05:13 13.2 10.4 83 1017.7 2.2 NW 3.1 0.0 0.0
05:14 13.2 10.4 83 1017.8 3.1 W 3.1 0.0 0.0
05:15 13.2 10.4 83 1017.5 3.1 W 3.1 0.0 0.0
05:30 13.1 10.3 83 1017.8 2.2 N 3.1 0.0 0.0
05:31 13.1 10.3 83 1017.9 2.2 W 3.1 0.0 0.0
05:32 13.1 10.3 83 1017.8 2.2 W 3.1 0.0 0.0
05:33 13.0 10.2 83 1017.7 2.2 W 3.1 0.0 0.0
05:34 13.0 10.2 83 1017.8 2.2 W 3.1 0.0 0.0
05:48 12.6 9.6 82 1017.6 0.7 SW 3.1 0.0 0.0
05:49 12.6 9.6 82 1017.8 0.7 SW 3.1 0.0 0.0
07:25 12.6 10.0 84 1018.0 3.1 SW 3.1 0.0 0.0
07:26 12.6 10.0 84 1017.9 3.1 SW 3.1 0.0 0.0
07:27 12.6 10.0 84 1018.0 3.1 W 3.1 0.0 0.0
07:28 12.7 10.1 84 1018.0 3.1 SW 3.1 0.0 0.0
07:29 12.7 10.1 84 1017.9 2.2 W 3.1 0.0 0.0
07:30 12.7 10.1 84 1017.6 2.2 S 3.1 0.0 0.0
07:31 12.8 10.2 84 1018.0 3.1 SW 3.1 0.0 0.0
07:32 12.8 10.2 84 1018.0 3.1 W 3.1 0.0 0.0
07:33 12.8 10.2 84 1018.0 3.1 W 3.1 0.0 0.0
07:34 12.9 10.3 84 1017.9 2.2 SW 3.1 0.0 0.0
07:35 12.9 10.3 84 1018.1 2.2 W 3.1 0.0 0.0
07:36 12.9 10.3 84 1017.9 2.2 W 3.1 0.0 0.0
07:37 12.9 10.3 84 1017.9 2.2 W 3.1 0.0 0.0
07:39 12.9 10.3 84 1018.0 1.6 W 3.1 0.0 0.0
07:40 13.0 10.5 85 1017.9 3.1 W 3.1 0.0 0.0
07:41 13.0 10.5 85 1018.0 3.1 W 3.1 0.0 0.0
07:42 13.0 10.5 85 1017.9 3.1 W 3.1 0.0 0.0
07:43 13.0 10.5 85 1017.9 2.2 W 3.1 0.0 0.0
07:44 13.1 10.6 85 1017.9 1.6 W 3.1 0.0 0.0
07:45 13.1 10.6 85 1018.1 3.1 W 3.1 0.0 0.0
07:46 13.1 10.6 85 1018.1 2.2 W 3.1 0.0 0.0
07:47 13.1 10.6 85 1018.0 2.2 W 3.1 0.0 0.0
07:48 13.2 10.7 85 1017.8 2.2 W 3.1 0.0 0.0
08:04 13.6 11.3 86 1018.2 3.1 W 3.1 0.0 0.0
08:05 13.6 11.3 86 1018.0 3.1 W 3.1 0.0 0.0
20:56 15.1 9.7 70 1017.7 1.6 W 3.1 0.0 0.4
20:57 15.1 9.7 70 1017.6 1.6 NW 3.1 0.0 0.4
20:58 15.1 9.7 70 1017.5 1.6 N 3.1 0.0 0.4
20:59 15.0 9.6 70 1017.8 2.2 WNW 3.1 0.0 0.4
21:00 15.0 9.6 70 1017.8 2.2 WNW 3.1 0.0 0.4
21:01 15.0 9.6 70 1017.5 2.2 WNW 3.1 0.0 0.4
21:02 15.0 9.6 70 1017.8 2.2 WNW 3.1 0.0 0.4
21:03 15.0 9.6 70 1017.7 2.2 WNW 3.1 0.0 0.4
21:04 15.0 9.6 70 1017.9 2.2 WNW 3.1 0.0 0.4
21:05 15.0 9.6 70 1017.9 2.2 WNW 3.1 0.0 0.4
22:11 13.7 9.0 73 1017.8 3.1 W 3.1 0.0 0.4
22:12 13.7 9.0 73 1017.8 3.1 NW 3.1 0.0 0.4
22:13 13.7 9.0 73 1017.8 3.1 W 3.1 0.0 0.4
22:14 13.7 9.0 73 1017.9 2.2 W 3.1 0.0 0.4
22:15 13.6 8.9 73 1017.9 2.2 NW 3.1 0.0 0.4
22:16 13.6 9.1 74 1017.9 2.2 NW 3.1 0.0 0.4
22:17 13.6 9.1 74 1017.9 2.2 N 3.1 0.0 0.4
22:18 13.6 9.1 74 1017.9 1.6 W 3.1 0.0 0.4
22:19 13.6 9.1 74 1018.0 2.2 NW 3.1 0.0 0.4
22:21 13.6 9.1 74 1017.9 1.6 NW 3.1 0.0 0.4
22:22 13.6 9.1 74 1018.2 2.2 NW 3.1 0.0 0.4
22:23 13.6 9.1 74 1017.9 2.2 NW 3.1 0.0 0.4
22:32 13.5 9.0 74 1018.1 3.1 W 3.1 0.0 0.4
22:33 13.5 9.0 74 1017.9 2.2 NW 3.1 0.0 0.4
22:34 13.5 9.0 74 1018.0 2.2 W 3.1 0.0 0.4
22:35 13.5 9.0 74 1018.0 2.2 NW 3.1 0.0 0.4
22:37 13.5 9.0 74 1017.8 2.2 NW 3.1 0.0 0.4
22:38 13.5 9.0 74 1017.9 2.2 NW 3.1 0.0 0.4
22:39 13.5 9.0 74 1017.9 2.2 NW 3.1 0.0 0.4
22:40 13.5 9.0 74 1017.9 2.2 W 3.1 0.0 0.4
22:41 13.5 9.0 74 1017.9 3.1 W 3.1 0.0 0.4
22:42 13.5 9.0 74 1018.0 3.1 NW 3.1 0.0 0.4
22:43 13.5 9.2 75 1018.1 3.1 NW 3.1 0.0 0.4
22:44 13.5 9.2 75 1017.7 3.1 NW 3.1 0.0 0.4
22:45 13.5 9.2 75 1017.9 3.1 W 3.1 0.0 0.4
22:46 13.5 9.2 75 1018.0 3.1 W 3.1 0.0 0.4
22:47 13.5 9.2 75 1017.8 2.2 NW 3.1 0.0 0.4
22:48 13.4 9.1 75 1017.8 2.2 NW 3.1 0.0 0.4
22:49 13.4 9.1 75 1018.1 2.2 NW 3.1 0.0 0.4
22:50 13.4 9.1 75 1017.9 2.2 NW 3.1 0.0 0.4
22:51 13.4 9.1 75 1017.8 2.2 W 3.1 0.0 0.4
22:53 13.4 9.1 75 1017.9 2.2 NW 3.1 0.0 0.4
22:54 13.4 9.1 75 1018.0 2.2 NW 3.1 0.0 0.4
22:55 13.4 9.1 75 1018.0 1.6 NW 3.1 0.0 0.4
22:56 13.4 9.1 75 1017.9 2.2 NW 3.1 0.0 0.4
00:09 13.6 9.6 77 1018.7 2.2 W 2.2 0.0 0.0
00:10 13.6 9.6 77 1018.8 1.6 W 2.2 0.0 0.0
00:11 13.6 9.8 78 1018.7 1.6 W 2.2 0.0 0.0
00:12 13.6 9.8 78 1018.7 1.6 W 2.2 0.0 0.0
00:13 13.6 9.8 78 1018.8 1.6 W 2.2 0.0 0.0
00:14 13.6 9.8 78 1019.0 1.6 W 2.2 0.0 0.0
00:15 13.6 9.8 78 1018.7 1.6 W 2.2 0.0 0.0
00:16 13.5 9.7 78 1018.7 1.6 W 2.2 0.0 0.0
00:17 13.5 9.7 78 1018.8 1.6 W 2.2 0.0 0.0
00:18 13.5 9.7 78 1018.9 1.6 W 2.2 0.0 0.0
00:21 13.5 9.7 78 1018.8 2.2 NW 2.2 0.0 0.0
00:22 13.5 9.7 78 1018.7 2.2 NW 2.2 0.0 0.0
00:23 13.5 9.7 78 1018.7 2.2 W 2.2 0.0 0.0
00:24 13.5 9.7 78 1018.8 2.2 W 2.2 0.0 0.0
00:25 13.5 9.7 78 1018.5 1.6 W 2.2 0.0 0.0
00:26 13.5 9.7 78 1018.8 2.2 W 2.2 0.0 0.0
00:27 13.5 9.7 78 1018.9 2.2 SW 2.2 0.0 0.0
00:28 13.5 9.7 78 1018.8 2.2 SW 2.2 0.0 0.0
00:29 13.5 9.7 78 1018.9 2.2 W 2.2 0.0 0.0
00:55 13.6 10.2 80 1018.7 2.2 W 2.2 0.0 0.0
00:56 13.6 10.2 80 1018.8 2.2 SW 2.2 0.0 0.0
00:57 13.6 10.2 80 1018.6 2.2 SW 2.2 0.0 0.0
00:58 13.6 10.2 80 1018.7 1.6 W 2.2 0.0 0.0
00:59 13.6 10.2 80 1018.7 1.6 SW 2.2 0.0 0.0
01:00 13.6 10.2 80 1018.7 1.6 SW 2.2 0.0 0.0
01:01 13.6 10.2 80 1018.8 1.6 SW 2.2 0.0 0.0
01:02 13.6 10.2 80 1018.7 1.6 SW 2.2 0.0 0.0
01:03 13.6 10.2 80 1018.7 1.6 SW 2.2 0.0 0.0
01:04 13.6 10.2 80 1018.6 1.6 SW 2.2 0.0 0.0
01:05 13.6 10.2 80 1018.5 1.6 SW 2.2 0.0 0.0
01:06 13.6 10.2 80 1018.7 1.6 SW 2.2 0.0 0.0
01:07 13.7 10.3 80 1018.5 2.2 W 2.2 0.0 0.0
01:08 13.7 10.3 80 1018.5 2.2 W 2.2 0.0 0.0
05:50 12.6 9.6 82 1017.9 0.7 SW 2.2 0.0 0.0
05:51 12.6 9.6 82 1017.8 0.0 SW 2.2 0.0 0.0
06:06 12.4 10.0 85 1017.7 2.2 SW 2.2 0.0 0.0
06:07 12.4 10.0 85 1017.6 0.7 SW 2.2 0.0 0.0
06:08 12.3 9.9 85 1017.6 0.0 SW 2.2 0.0 0.0
06:09 12.3 9.9 85 1017.7 0.0 SW 2.2 0.0 0.0
06:10 12.3 9.9 85 1017.8 0.7 SW 2.2 0.0 0.0
06:11 12.3 9.9 85 1017.6 0.7 SW 2.2 0.0 0.0
06:12 12.3 9.9 85 1017.4 0.0 SW 2.2 0.0 0.0
06:14 12.3 9.9 85 1017.7 0.0 SW 2.2 0.0 0.0
06:15 12.3 9.9 85 1017.6 0.0 SW 2.2 0.0 0.0
06:21 12.1 9.7 85 1017.7 2.2 SW 2.2 0.0 0.0
06:22 12.1 9.7 85 1017.6 1.6 S 2.2 0.0 0.0
06:23 12.1 9.7 85 1017.8 1.6 SW 2.2 0.0 0.0
06:24 12.0 9.6 85 1017.8 2.2 SW 2.2 0.0 0.0
06:25 12.0 9.6 85 1017.7 1.6 SW 2.2 0.0 0.0
06:26 12.0 9.6 85 1017.7 1.6 SW 2.2 0.0 0.0
06:28 12.0 9.6 85 1017.8 1.6 SW 2.2 0.0 0.0
06:29 12.0 9.6 85 1017.9 1.6 SW 2.2 0.0 0.0
06:30 12.0 9.6 85 1017.7 1.6 SW 2.2 0.0 0.0
06:31 12.0 9.6 85 1017.7 1.6 S 2.2 0.0 0.0
06:32 12.0 9.6 85 1017.7 1.6 S 2.2 0.0 0.0
06:33 12.0 9.6 85 1017.7 1.6 SW 2.2 0.0 0.0
06:34 12.0 9.6 85 1017.7 0.7 SW 2.2 0.0 0.0
07:20 12.4 10.3 87 1017.8 2.2 SW 2.2 0.0 0.0
07:21 12.5 9.9 84 1017.7 2.2 SW 2.2 0.0 0.0
07:22 12.5 9.9 84 1017.9 2.2 SW 2.2 0.0 0.0
07:24 12.5 9.9 84 1017.9 1.6 SW 2.2 0.0 0.0
21:07 15.0 9.6 70 1017.5 2.2 WNW 2.2 0.0 0.4
21:08 15.0 9.6 70 1017.6 2.2 WNW 2.2 0.0 0.4
21:09 15.0 9.6 70 1017.9 2.2 WNW 2.2 0.0 0.4
21:10 14.7 9.3 70 1017.6 1.6 W 2.2 0.0 0.4
21:11 14.7 9.3 70 1017.6 1.6 W 2.2 0.0 0.4
21:12 14.7 9.3 70 1017.6 1.6 W 2.2 0.0 0.4
21:13 14.7 9.5 71 1017.5 1.6 W 2.2 0.0 0.4
21:14 14.7 9.5 71 1017.6 1.6 W 2.2 0.0 0.4
21:15 14.7 9.5 71 1017.8 0.7 W 2.2 0.0 0.4
21:16 14.6 9.4 71 1017.7 1.6 W 2.2 0.0 0.4
21:17 14.6 9.4 71 1017.9 1.6 W 2.2 0.0 0.4
21:23 14.5 9.3 71 1017.9 2.2 W 2.2 0.0 0.4
21:24 14.5 9.3 71 1017.8 0.7 W 2.2 0.0 0.4
21:25 14.5 9.3 71 1017.9 0.7 W 2.2 0.0 0.4
21:26 14.5 9.3 71 1017.9 0.0 W 2.2 0.0 0.4
21:27 14.4 9.2 71 1017.8 0.7 W 2.2 0.0 0.4
21:28 14.4 9.2 71 1017.7 0.0 W 2.2 0.0 0.4
21:29 14.4 9.2 71 1017.8 0.0 W 2.2 0.0 0.4
21:30 14.4 9.2 71 1017.7 1.6 W 2.2 0.0 0.4
21:31 14.4 9.2 71 1017.7 1.6 W 2.2 0.0 0.4
21:32 14.3 9.1 71 1017.8 1.6 W 2.2 0.0 0.4
21:49 13.9 8.9 72 1017.8 2.2 W 2.2 0.0 0.4
21:50 13.9 8.9 72 1017.9 2.2 W 2.2 0.0 0.4
21:52 13.9 8.9 72 1018.1 0.0 W 2.2 0.0 0.4
21:53 13.9 8.9 72 1017.8 1.6 W 2.2 0.0 0.4
21:54 13.8 8.8 72 1017.9 1.6 W 2.2 0.0 0.4
21:55 13.8 8.8 72 1017.9 1.6 W 2.2 0.0 0.4
21:56 13.8 8.8 72 1017.8 1.6 W 2.2 0.0 0.4
21:57 13.8 9.0 73 1017.8 0.7 W 2.2 0.0 0.4
21:58 13.8 9.0 73 1018.0 0.7 W 2.2 0.0 0.4
21:59 13.8 9.0 73 1018.0 0.7 W 2.2 0.0 0.4
22:00 13.8 9.0 73 1018.0 2.2 W 2.2 0.0 0.4
22:01 13.8 9.0 73 1018.0 1.6 W 2.2 0.0 0.4
22:02 13.8 9.0 73 1018.1 1.6 W 2.2 0.0 0.4
22:03 13.7 9.0 73 1017.9 1.6 W 2.2 0.0 0.4
22:04 13.7 9.0 73 1017.8 2.2 NW 2.2 0.0 0.4
22:06 13.7 9.0 73 1018.0 2.2 W 2.2 0.0 0.4
22:07 13.7 9.0 73 1017.9 2.2 W 2.2 0.0 0.4
22:08 13.7 9.0 73 1017.9 2.2 NW 2.2 0.0 0.4
22:09 13.7 9.0 73 1017.9 2.2 W 2.2 0.0 0.4
22:10 13.7 9.0 73 1017.6 2.2 W 2.2 0.0 0.4
22:24 13.6 9.1 74 1018.1 2.2 W 2.2 0.0 0.4
22:25 13.6 9.1 74 1018.0 2.2 W 2.2 0.0 0.4
22:26 13.6 9.1 74 1018.0 1.6 W 2.2 0.0 0.4
22:27 13.6 9.1 74 1018.0 1.6 NW 2.2 0.0 0.4
22:28 13.5 9.0 74 1017.8 1.6 W 2.2 0.0 0.4
22:29 13.5 9.0 74 1017.9 2.2 NW 2.2 0.0 0.4
22:30 13.5 9.0 74 1018.0 2.2 W 2.2 0.0 0.4
22:31 13.5 9.0 74 1018.1 2.2 NW 2.2 0.0 0.4
22:57 13.4 9.1 75 1018.1 2.2 NW 2.2 0.0 0.4
22:58 13.4 9.1 75 1018.0 2.2 NW 2.2 0.0 0.4
22:59 13.4 9.1 75 1018.3 2.2 NW 2.2 0.0 0.4
23:00 13.4 9.1 75 1018.0 2.2 NW 2.2 0.0 0.4
23:01 13.4 9.1 75 1018.2 2.2 NW 2.2 0.0 0.4
23:02 13.4 9.1 75 1017.9 2.2 NW 2.2 0.0 0.4
23:03 13.4 9.1 75 1018.3 2.2 NW 2.2 0.0 0.4
23:04 13.4 9.1 75 1018.1 2.2 NW 2.2 0.0 0.4
23:05 13.4 9.1 75 1018.1 2.2 NW 2.2 0.0 0.4
23:07 13.3 9.0 75 1018.0 2.2 W 2.2 0.0 0.4
23:08 13.3 9.0 75 1017.9 1.6 NW 2.2 0.0 0.4
23:09 13.3 9.0 75 1018.1 1.6 W 2.2 0.0 0.4
23:10 13.3 9.0 75 1018.0 1.6 NW 2.2 0.0 0.4
23:11 13.3 9.0 75 1017.9 2.2 W 2.2 0.0 0.4
23:12 13.3 9.0 75 1017.9 1.6 W 2.2 0.0 0.4
23:13 13.3 9.0 75 1018.0 1.6 WNW 2.2 0.0 0.4
23:14 13.3 9.0 75 1017.9 1.6 WNW 2.2 0.0 0.4
23:15 13.3 9.0 75 1017.8 1.6 WNW 2.2 0.0 0.4
23:16 13.3 9.0 75 1017.8 0.7 WNW 2.2 0.0 0.4
23:17 13.3 9.0 75 1017.8 0.7 WNW 2.2 0.0 0.4
23:18 13.3 9.0 75 1017.9 2.2 WNW 2.2 0.0 0.4
23:20 13.3 9.2 76 1017.8 1.6 WNW 2.2 0.0 0.4
23:21 13.3 9.2 76 1017.8 1.6 WNW 2.2 0.0 0.4
23:22 13.2 9.1 76 1017.8 0.7 W 2.2 0.0 0.4
23:23 13.2 9.1 76 1018.1 1.6 W 2.2 0.0 0.4
23:24 13.2 9.1 76 1017.8 1.6 W 2.2 0.0 0.4
23:25 13.2 9.1 76 1018.0 1.6 W 2.2 0.0 0.4
23:26 13.2 9.1 76 1017.8 1.6 W 2.2 0.0 0.4
23:27 13.2 9.1 76 1017.9 0.7 W 2.2 0.0 0.4
23:28 13.2 9.1 76 1017.8 0.0 W 2.2 0.0 0.4
00:19 13.5 9.7 78 1018.7 1.6 NW 1.6 0.0 0.0
00:20 13.5 9.7 78 1018.8 1.6 NW 1.6 0.0 0.0
05:52 12.5 9.5 82 1017.6 0.7 SW 1.6 0.0 0.0
05:53 12.5 9.5 82 1017.9 0.7 SW 1.6 0.0 0.0
05:54 12.5 9.5 82 1017.7 0.7 SW 1.6 0.0 0.0
05:55 12.5 9.5 82 1017.6 0.7 SW 1.6 0.0 0.0
05:56 12.5 9.5 82 1017.6 1.6 W 1.6 0.0 0.0
05:57 12.5 9.5 82 1017.5 1.6 NW 1.6 0.0 0.0
05:59 12.5 9.5 82 1017.7 1.6 NW 1.6 0.0 0.0
06:00 12.5 9.5 82 1017.8 1.6 NW 1.6 0.0 0.0
06:01 12.5 9.5 82 1017.7 1.6 NW 1.6 0.0 0.0
06:02 12.5 9.5 82 1017.6 1.6 NW 1.6 0.0 0.0
06:03 12.5 9.5 82 1017.6 1.6 NW 1.6 0.0 0.0
06:04 12.5 9.5 82 1017.7 1.6 NW 1.6 0.0 0.0
06:05 12.5 9.5 82 1017.7 1.6 NW 1.6 0.0 0.0
06:19 12.1 9.7 85 1017.5 1.6 W 1.6 0.0 0.0
06:20 12.1 9.7 85 1017.5 1.6 SW 1.6 0.0 0.0
06:35 12.0 9.6 85 1017.6 0.0 SW 1.6 0.0 0.0
06:36 12.0 9.6 85 1017.8 0.0 SW 1.6 0.0 0.0
06:37 12.0 9.6 85 1017.8 0.0 SW 1.6 0.0 0.0
06:38 12.0 9.6 85 1017.7 0.0 SW 1.6 0.0 0.0
06:39 12.0 9.6 85 1017.9 0.7 SW 1.6 0.0 0.0
06:40 12.0 9.6 85 1017.9 0.7 SW 1.6 0.0 0.0
06:42 12.0 9.6 85 1018.0 0.0 SW 1.6 0.0 0.0
06:56 12.0 9.7 86 1017.6 1.6 SW 1.6 0.0 0.0
06:57 12.0 9.7 86 1017.8 1.6 SW 1.6 0.0 0.0
06:58 12.0 9.7 86 1017.7 1.6 SW 1.6 0.0 0.0
06:59 12.0 9.7 86 1017.9 1.6 SW 1.6 0.0 0.0
07:00 12.0 9.7 86 1017.8 1.6 SW 1.6 0.0 0.0
07:01 12.0 9.7 86 1017.8 1.6 SW 1.6 0.0 0.0
07:02 12.0 9.7 86 1018.1 1.6 SW 1.6 0.0 0.0
07:03 12.1 9.8 86 1017.9 1.6 SW 1.6 0.0 0.0
07:04 12.1 9.8 86 1018.0 1.6 SW 1.6 0.0 0.0
07:05 12.1 9.8 86 1017.9 1.6 SW 1.6 0.0 0.0
07:06 12.1 9.8 86 1018.0 1.6 SW 1.6 0.0 0.0
07:07 12.1 9.8 86 1017.9 1.6 SW 1.6 0.0 0.0
07:08 12.2 9.9 86 1018.0 0.7 SW 1.6 0.0 0.0
07:10 12.2 9.9 86 1017.9 0.7 SW 1.6 0.0 0.0
07:11 12.2 10.1 87 1017.8 0.7 SW 1.6 0.0 0.0
07:12 12.2 10.1 87 1018.0 0.7 SW 1.6 0.0 0.0
07:13 12.2 10.1 87 1018.1 0.7 SW 1.6 0.0 0.0
07:14 12.2 10.1 87 1018.0 1.6 SW 1.6 0.0 0.0
07:15 12.2 10.1 87 1018.0 1.6 SW 1.6 0.0 0.0
07:16 12.3 10.2 87 1017.8 1.6 SW 1.6 0.0 0.0
07:17 12.3 10.2 87 1017.9 0.7 SW 1.6 0.0 0.0
07:18 12.4 10.3 87 1017.9 1.6 SW 1.6 0.0 0.0
07:19 12.4 10.3 87 1017.8 0.7 SW 1.6 0.0 0.0
21:19 14.6 9.4 71 1018.0 1.6 NW 1.6 0.0 0.4
21:20 14.6 9.4 71 1017.7 1.6 NW 1.6 0.0 0.4
21:21 14.6 9.4 71 1017.6 1.6 NW 1.6 0.0 0.4
21:22 14.5 9.3 71 1017.8 1.6 NW 1.6 0.0 0.4
21:33 14.3 9.1 71 1017.9 1.6 W 1.6 0.0 0.4
21:34 14.3 9.1 71 1017.8 1.6 W 1.6 0.0 0.4
21:35 14.3 9.1 71 1017.8 1.6 W 1.6 0.0 0.4
21:37 14.2 9.2 72 1017.9 1.6 W 1.6 0.0 0.4
21:38 14.2 9.2 72 1017.8 1.6 W 1.6 0.0 0.4
21:39 14.2 9.2 72 1017.8 1.6 W 1.6 0.0 0.4
21:40 14.1 9.1 72 1017.8 0.7 W 1.6 0.0 0.4
21:41 14.1 9.1 72 1017.8 0.0 W 1.6 0.0 0.4
21:42 14.1 9.1 72 1017.8 0.7 W 1.6 0.0 0.4
21:43 14.1 9.1 72 1017.9 1.6 W 1.6 0.0 0.4
21:44 14.1 9.1 72 1017.9 0.7 W 1.6 0.0 0.4
21:45 14.0 9.0 72 1018.0 0.7 W 1.6 0.0 0.4
21:46 14.0 9.0 72 1017.9 0.0 W 1.6 0.0 0.4
21:47 14.0 9.0 72 1017.9 0.0 W 1.6 0.0 0.4
21:48 13.9 8.9 72 1017.9 1.6 W 1.6 0.0 0.4
23:29 13.2 9.1 76 1018.0 0.7 W 1.6 0.0 0.4
23:30 13.2 9.1 76 1017.8 0.0 W 1.6 0.0 0.4
23:31 13.2 9.1 76 1018.0 0.0 W 1.6 0.0 0.4
23:32 13.2 9.1 76 1017.8 0.7 W 1.6 0.0 0.4
23:34 13.2 9.1 76 1018.0 0.7 W 1.6 0.0 0.4
23:35 13.2 9.1 76 1017.8 0.7 W 1.6 0.0 0.4
23:39 13.1 9.0 76 1017.9 0.7 W 1.6 0.0 0.4
23:40 13.1 9.0 76 1018.0 0.7 W 1.6 0.0 0.4
23:41 13.1 9.0 76 1018.0 0.7 W 1.6 0.0 0.4
23:42 13.1 9.0 76 1018.0 0.0 W 1.6 0.0 0.4
23:43 13.1 9.0 76 1017.9 0.0 W 1.6 0.0 0.4
23:44 13.0 8.9 76 1017.9 0.7 W 1.6 0.0 0.4
23:45 13.0 8.9 76 1018.0 0.0 W 1.6 0.0 0.4
23:46 13.0 8.9 76 1017.9 0.7 W 1.6 0.0 0.4
23:47 13.0 8.9 76 1018.0 0.0 W 1.6 0.0 0.4
06:16 12.2 9.8 85 1017.8 0.0 SW 0.7 0.0 0.0
06:17 12.2 9.8 85 1017.5 0.0 SW 0.7 0.0 0.0
06:18 12.2 9.8 85 1017.5 0.0 SW 0.7 0.0 0.0
06:43 12.0 9.6 85 1017.8 0.7 SW 0.7 0.0 0.0
06:44 12.0 9.6 85 1017.7 0.7 SW 0.7 0.0 0.0
06:45 12.0 9.6 85 1017.6 0.0 SW 0.7 0.0 0.0
06:46 12.0 9.6 85 1017.8 0.0 SW 0.7 0.0 0.0
06:47 12.0 9.6 85 1017.8 0.0 S 0.7 0.0 0.0
06:48 12.0 9.6 85 1017.8 0.0 S 0.7 0.0 0.0
06:49 12.0 9.6 85 1017.8 0.0 S 0.7 0.0 0.0
06:50 12.0 9.7 86 1017.9 0.0 S 0.7 0.0 0.0
06:51 12.0 9.7 86 1017.7 0.0 S 0.7 0.0 0.0
06:52 12.0 9.7 86 1017.9 0.7 S 0.7 0.0 0.0
06:53 12.0 9.7 86 1017.5 0.7 S 0.7 0.0 0.0
06:54 12.0 9.7 86 1018.0 0.7 S 0.7 0.0 0.0
23:36 13.2 9.1 76 1017.9 0.0 W 0.7 0.0 0.4
23:37 13.1 9.0 76 1018.0 0.0 W 0.7 0.0 0.4
23:38 13.1 9.0 76 1017.9 0.0 W 0.7 0.0 0.4
23:49 13.0 8.9 76 1017.9 0.0 W 0.7 0.0 0.4
23:50 13.0 8.9 76 1017.9 0.0 W 0.7 0.0 0.4
23:51 12.9 8.8 76 1017.8 0.0 W 0.7 0.0 0.4
23:52 12.9 8.8 76 1018.2 0.0 W 0.7 0.0 0.4
23:53 12.9 8.8 76 1018.0 0.0 W 0.7 0.0 0.4
23:54 12.9 8.8 76 1017.9 0.0 W 0.7 0.0 0.4
23:55 12.9 8.8 76 1018.0 0.0 W 0.7 0.0 0.4
23:56 12.9 9.0 77 1018.0 0.0 W 0.7 0.0 0.4
23:57 12.8 8.9 77 1017.9 0.7 W 0.7 0.0 0.4
23:58 12.8 8.9 77 1018.0 0.7 S 0.7 0.0 0.4
23:59 12.8 8.9 77 1017.9 0.7 S 0.7 0.0 0.4

 

 

UK - WEATHER STATION TOPSITES - UK World Weather Websites

Copyright © Carnkie Weather 2009 - 2020.